<?xml version="1.0" encoding="utf-8"?>
<gpx xmlns:xsi="http://www.w3.org/2001/XMLSchema-instance" xmlns:xsd="http://www.w3.org/2001/XMLSchema" version="1.1" creator="Shapelink.com" xmlns="http://www.topografix.com/GPX/1/1" xmlns:gpxtpx="http://www.garmin.com/xmlschemas/TrackPointExtension/v1">
  <metadata>
    <name>Cykel 8.50 km, 2014-07-06</name>
    <desc></desc>
    <author><name>Mikael Blom</name></author> 
    <time>2014-07-06T09:00:01Z</time>
  </metadata>
  <trk>
    <name>Cykel 8.50 km, 2014-07-06</name>
    <trkseg>
      <trkpt lat="59.9554446" lon="17.7136381">
        <ele>47.2418</ele>
        <time>2014-07-06T09:00:01Z</time>
      </trkpt>
      <trkpt lat="59.9554609" lon="17.7136328">
        <ele>47.2418</ele>
        <time>2014-07-06T09:00:02Z</time>
      </trkpt>
      <trkpt lat="59.9554785" lon="17.7136346">
        <ele>47.2418</ele>
        <time>2014-07-06T09:00:03Z</time>
      </trkpt>
      <trkpt lat="59.9554966" lon="17.7136475">
        <ele>47.2418</ele>
        <time>2014-07-06T09:00:04Z</time>
      </trkpt>
      <trkpt lat="59.9555135" lon="17.7136709">
        <ele>47.2418</ele>
        <time>2014-07-06T09:00:05Z</time>
      </trkpt>
      <trkpt lat="59.9555276" lon="17.7137064">
        <ele>47.2418</ele>
        <time>2014-07-06T09:00:06Z</time>
      </trkpt>
      <trkpt lat="59.9555402" lon="17.7137491">
        <ele>47.7225</ele>
        <time>2014-07-06T09:00:07Z</time>
      </trkpt>
      <trkpt lat="59.9555516" lon="17.7137962">
        <ele>47.7225</ele>
        <time>2014-07-06T09:00:08Z</time>
      </trkpt>
      <trkpt lat="59.9555629" lon="17.7138474">
        <ele>48.2034</ele>
        <time>2014-07-06T09:00:09Z</time>
      </trkpt>
      <trkpt lat="59.9555739" lon="17.7139003">
        <ele>48.2034</ele>
        <time>2014-07-06T09:00:10Z</time>
      </trkpt>
      <trkpt lat="59.9555851" lon="17.7139528">
        <ele>48.2034</ele>
        <time>2014-07-06T09:00:11Z</time>
      </trkpt>
      <trkpt lat="59.9555971" lon="17.7140056">
        <ele>48.2034</ele>
        <time>2014-07-06T09:00:12Z</time>
      </trkpt>
      <trkpt lat="59.9556092" lon="17.7140594">
        <ele>48.2034</ele>
        <time>2014-07-06T09:00:13Z</time>
      </trkpt>
      <trkpt lat="59.9556231" lon="17.7141148">
        <ele>48.684</ele>
        <time>2014-07-06T09:00:14Z</time>
      </trkpt>
      <trkpt lat="59.9556379" lon="17.7141718">
        <ele>48.684</ele>
        <time>2014-07-06T09:00:15Z</time>
      </trkpt>
      <trkpt lat="59.9556518" lon="17.7142307">
        <ele>48.684</ele>
        <time>2014-07-06T09:00:16Z</time>
      </trkpt>
      <trkpt lat="59.9556658" lon="17.7142914">
        <ele>48.684</ele>
        <time>2014-07-06T09:00:17Z</time>
      </trkpt>
      <trkpt lat="59.9556816" lon="17.7143516">
        <ele>48.684</ele>
        <time>2014-07-06T09:00:18Z</time>
      </trkpt>
      <trkpt lat="59.9556983" lon="17.7144121">
        <ele>49.1646</ele>
        <time>2014-07-06T09:00:19Z</time>
      </trkpt>
      <trkpt lat="59.9557153" lon="17.7144727">
        <ele>49.1646</ele>
        <time>2014-07-06T09:00:20Z</time>
      </trkpt>
      <trkpt lat="59.9557337" lon="17.7145334">
        <ele>49.1646</ele>
        <time>2014-07-06T09:00:21Z</time>
      </trkpt>
      <trkpt lat="59.9557529" lon="17.7145956">
        <ele>49.1646</ele>
        <time>2014-07-06T09:00:22Z</time>
      </trkpt>
      <trkpt lat="59.9557727" lon="17.7146592">
        <ele>49.1646</ele>
        <time>2014-07-06T09:00:23Z</time>
      </trkpt>
      <trkpt lat="59.9557934" lon="17.7147224">
        <ele>49.1646</ele>
        <time>2014-07-06T09:00:24Z</time>
      </trkpt>
      <trkpt lat="59.9558157" lon="17.714788">
        <ele>49.6453</ele>
        <time>2014-07-06T09:00:25Z</time>
      </trkpt>
      <trkpt lat="59.9558375" lon="17.7148553">
        <ele>49.6453</ele>
        <time>2014-07-06T09:00:26Z</time>
      </trkpt>
      <trkpt lat="59.9558602" lon="17.7149212">
        <ele>49.6453</ele>
        <time>2014-07-06T09:00:27Z</time>
      </trkpt>
      <trkpt lat="59.9558841" lon="17.7149818">
        <ele>49.6453</ele>
        <time>2014-07-06T09:00:28Z</time>
      </trkpt>
      <trkpt lat="59.9559072" lon="17.7150413">
        <ele>49.1646</ele>
        <time>2014-07-06T09:00:29Z</time>
      </trkpt>
      <trkpt lat="59.9559302" lon="17.7151032">
        <ele>49.1646</ele>
        <time>2014-07-06T09:00:30Z</time>
      </trkpt>
      <trkpt lat="59.9559526" lon="17.7151647">
        <ele>49.1646</ele>
        <time>2014-07-06T09:00:31Z</time>
      </trkpt>
      <trkpt lat="59.9559742" lon="17.7152227">
        <ele>49.1646</ele>
        <time>2014-07-06T09:00:32Z</time>
      </trkpt>
      <trkpt lat="59.9559966" lon="17.7152766">
        <ele>49.6453</ele>
        <time>2014-07-06T09:00:33Z</time>
      </trkpt>
      <trkpt lat="59.9560197" lon="17.7153311">
        <ele>49.6453</ele>
        <time>2014-07-06T09:00:34Z</time>
      </trkpt>
      <trkpt lat="59.9560426" lon="17.7153901">
        <ele>50.126</ele>
        <time>2014-07-06T09:00:35Z</time>
      </trkpt>
      <trkpt lat="59.9560644" lon="17.7154492">
        <ele>50.126</ele>
        <time>2014-07-06T09:00:36Z</time>
      </trkpt>
      <trkpt lat="59.9560907" lon="17.7155061">
        <ele>50.126</ele>
        <time>2014-07-06T09:00:37Z</time>
      </trkpt>
      <trkpt lat="59.9561162" lon="17.7155638">
        <ele>50.126</ele>
        <time>2014-07-06T09:00:38Z</time>
      </trkpt>
      <trkpt lat="59.9561415" lon="17.7156237">
        <ele>50.126</ele>
        <time>2014-07-06T09:00:39Z</time>
      </trkpt>
      <trkpt lat="59.9561659" lon="17.7156811">
        <ele>50.126</ele>
        <time>2014-07-06T09:00:40Z</time>
      </trkpt>
      <trkpt lat="59.9561918" lon="17.7157332">
        <ele>50.126</ele>
        <time>2014-07-06T09:00:41Z</time>
      </trkpt>
      <trkpt lat="59.9562157" lon="17.7157858">
        <ele>50.126</ele>
        <time>2014-07-06T09:00:42Z</time>
      </trkpt>
      <trkpt lat="59.9562406" lon="17.7158412">
        <ele>49.6453</ele>
        <time>2014-07-06T09:00:43Z</time>
      </trkpt>
      <trkpt lat="59.9562643" lon="17.7158984">
        <ele>49.6453</ele>
        <time>2014-07-06T09:00:44Z</time>
      </trkpt>
      <trkpt lat="59.9562891" lon="17.7159585">
        <ele>49.1646</ele>
        <time>2014-07-06T09:00:45Z</time>
      </trkpt>
      <trkpt lat="59.9563161" lon="17.7160191">
        <ele>49.6453</ele>
        <time>2014-07-06T09:00:46Z</time>
      </trkpt>
      <trkpt lat="59.9563415" lon="17.7160799">
        <ele>49.6453</ele>
        <time>2014-07-06T09:00:47Z</time>
      </trkpt>
      <trkpt lat="59.9563654" lon="17.716141">
        <ele>49.6453</ele>
        <time>2014-07-06T09:00:48Z</time>
      </trkpt>
      <trkpt lat="59.9563892" lon="17.7162017">
        <ele>50.126</ele>
        <time>2014-07-06T09:00:49Z</time>
      </trkpt>
      <trkpt lat="59.9564135" lon="17.7162583">
        <ele>50.126</ele>
        <time>2014-07-06T09:00:50Z</time>
      </trkpt>
      <trkpt lat="59.9564382" lon="17.7163117">
        <ele>50.126</ele>
        <time>2014-07-06T09:00:51Z</time>
      </trkpt>
      <trkpt lat="59.9564613" lon="17.7163624">
        <ele>50.126</ele>
        <time>2014-07-06T09:00:52Z</time>
      </trkpt>
      <trkpt lat="59.9564844" lon="17.7164112">
        <ele>50.6066</ele>
        <time>2014-07-06T09:00:53Z</time>
      </trkpt>
      <trkpt lat="59.9565058" lon="17.7164596">
        <ele>50.6066</ele>
        <time>2014-07-06T09:00:54Z</time>
      </trkpt>
      <trkpt lat="59.9565278" lon="17.7165058">
        <ele>50.6066</ele>
        <time>2014-07-06T09:00:55Z</time>
      </trkpt>
      <trkpt lat="59.9565464" lon="17.7165494">
        <ele>50.6066</ele>
        <time>2014-07-06T09:00:56Z</time>
      </trkpt>
      <trkpt lat="59.9565663" lon="17.716593">
        <ele>50.6066</ele>
        <time>2014-07-06T09:00:57Z</time>
      </trkpt>
      <trkpt lat="59.9565881" lon="17.7166303">
        <ele>51.0872</ele>
        <time>2014-07-06T09:00:58Z</time>
      </trkpt>
      <trkpt lat="59.9566145" lon="17.7166499">
        <ele>51.5679</ele>
        <time>2014-07-06T09:00:59Z</time>
      </trkpt>
      <trkpt lat="59.9566348" lon="17.7166468">
        <ele>50.6066</ele>
        <time>2014-07-06T09:01:00Z</time>
      </trkpt>
      <trkpt lat="59.956658" lon="17.7166304">
        <ele>50.6066</ele>
        <time>2014-07-06T09:01:01Z</time>
      </trkpt>
      <trkpt lat="59.9566813" lon="17.7166052">
        <ele>50.6066</ele>
        <time>2014-07-06T09:01:02Z</time>
      </trkpt>
      <trkpt lat="59.9567058" lon="17.7165773">
        <ele>50.126</ele>
        <time>2014-07-06T09:01:03Z</time>
      </trkpt>
      <trkpt lat="59.9567336" lon="17.7165391">
        <ele>50.6066</ele>
        <time>2014-07-06T09:01:04Z</time>
      </trkpt>
      <trkpt lat="59.9567605" lon="17.7164886">
        <ele>50.6066</ele>
        <time>2014-07-06T09:01:05Z</time>
      </trkpt>
      <trkpt lat="59.9567899" lon="17.7164391">
        <ele>50.6066</ele>
        <time>2014-07-06T09:01:06Z</time>
      </trkpt>
      <trkpt lat="59.9568227" lon="17.7163816">
        <ele>50.6066</ele>
        <time>2014-07-06T09:01:07Z</time>
      </trkpt>
      <trkpt lat="59.9568593" lon="17.7163255">
        <ele>50.126</ele>
        <time>2014-07-06T09:01:08Z</time>
      </trkpt>
      <trkpt lat="59.956898" lon="17.7162654">
        <ele>49.6453</ele>
        <time>2014-07-06T09:01:09Z</time>
      </trkpt>
      <trkpt lat="59.9569394" lon="17.7161988">
        <ele>49.1646</ele>
        <time>2014-07-06T09:01:10Z</time>
      </trkpt>
      <trkpt lat="59.9569821" lon="17.7161293">
        <ele>49.1646</ele>
        <time>2014-07-06T09:01:11Z</time>
      </trkpt>
      <trkpt lat="59.9570253" lon="17.7160577">
        <ele>49.1646</ele>
        <time>2014-07-06T09:01:12Z</time>
      </trkpt>
      <trkpt lat="59.9570678" lon="17.7159825">
        <ele>49.1646</ele>
        <time>2014-07-06T09:01:13Z</time>
      </trkpt>
      <trkpt lat="59.9571093" lon="17.715903">
        <ele>48.684</ele>
        <time>2014-07-06T09:01:14Z</time>
      </trkpt>
      <trkpt lat="59.9571499" lon="17.7158206">
        <ele>48.2034</ele>
        <time>2014-07-06T09:01:15Z</time>
      </trkpt>
      <trkpt lat="59.9571942" lon="17.7157396">
        <ele>48.2034</ele>
        <time>2014-07-06T09:01:16Z</time>
      </trkpt>
      <trkpt lat="59.9572391" lon="17.7156558">
        <ele>48.2034</ele>
        <time>2014-07-06T09:01:17Z</time>
      </trkpt>
      <trkpt lat="59.9572812" lon="17.7155765">
        <ele>47.7225</ele>
        <time>2014-07-06T09:01:18Z</time>
      </trkpt>
      <trkpt lat="59.9573258" lon="17.7154967">
        <ele>47.2418</ele>
        <time>2014-07-06T09:01:19Z</time>
      </trkpt>
      <trkpt lat="59.9573699" lon="17.7154161">
        <ele>47.2418</ele>
        <time>2014-07-06T09:01:20Z</time>
      </trkpt>
      <trkpt lat="59.9574146" lon="17.7153348">
        <ele>47.2418</ele>
        <time>2014-07-06T09:01:21Z</time>
      </trkpt>
      <trkpt lat="59.9574579" lon="17.7152528">
        <ele>46.7612</ele>
        <time>2014-07-06T09:01:22Z</time>
      </trkpt>
      <trkpt lat="59.9575004" lon="17.7151703">
        <ele>46.2806</ele>
        <time>2014-07-06T09:01:23Z</time>
      </trkpt>
      <trkpt lat="59.9575439" lon="17.7150879">
        <ele>45.7999</ele>
        <time>2014-07-06T09:01:24Z</time>
      </trkpt>
      <trkpt lat="59.9575877" lon="17.7150063">
        <ele>45.7999</ele>
        <time>2014-07-06T09:01:25Z</time>
      </trkpt>
      <trkpt lat="59.9576317" lon="17.7149254">
        <ele>45.7999</ele>
        <time>2014-07-06T09:01:26Z</time>
      </trkpt>
      <trkpt lat="59.9576758" lon="17.714845">
        <ele>45.7999</ele>
        <time>2014-07-06T09:01:27Z</time>
      </trkpt>
      <trkpt lat="59.9577193" lon="17.7147662">
        <ele>45.7999</ele>
        <time>2014-07-06T09:01:28Z</time>
      </trkpt>
      <trkpt lat="59.9577609" lon="17.7146842">
        <ele>45.7999</ele>
        <time>2014-07-06T09:01:29Z</time>
      </trkpt>
      <trkpt lat="59.9578028" lon="17.7146031">
        <ele>45.3192</ele>
        <time>2014-07-06T09:01:30Z</time>
      </trkpt>
      <trkpt lat="59.9578469" lon="17.7145241">
        <ele>45.3192</ele>
        <time>2014-07-06T09:01:31Z</time>
      </trkpt>
      <trkpt lat="59.9578888" lon="17.7144313">
        <ele>45.7999</ele>
        <time>2014-07-06T09:01:32Z</time>
      </trkpt>
      <trkpt lat="59.9579303" lon="17.7143515">
        <ele>45.3192</ele>
        <time>2014-07-06T09:01:33Z</time>
      </trkpt>
      <trkpt lat="59.9579738" lon="17.7142732">
        <ele>45.3192</ele>
        <time>2014-07-06T09:01:34Z</time>
      </trkpt>
      <trkpt lat="59.9580163" lon="17.7141928">
        <ele>45.3192</ele>
        <time>2014-07-06T09:01:35Z</time>
      </trkpt>
      <trkpt lat="59.958058" lon="17.7141135">
        <ele>45.3192</ele>
        <time>2014-07-06T09:01:36Z</time>
      </trkpt>
      <trkpt lat="59.9580949" lon="17.714022">
        <ele>45.3192</ele>
        <time>2014-07-06T09:01:37Z</time>
      </trkpt>
      <trkpt lat="59.958124" lon="17.7139195">
        <ele>45.3192</ele>
        <time>2014-07-06T09:01:38Z</time>
      </trkpt>
      <trkpt lat="59.9581436" lon="17.7138107">
        <ele>44.8386</ele>
        <time>2014-07-06T09:01:39Z</time>
      </trkpt>
      <trkpt lat="59.9581616" lon="17.7136974">
        <ele>44.358</ele>
        <time>2014-07-06T09:01:40Z</time>
      </trkpt>
      <trkpt lat="59.9581784" lon="17.7135792">
        <ele>43.8773</ele>
        <time>2014-07-06T09:01:41Z</time>
      </trkpt>
      <trkpt lat="59.9581947" lon="17.7134527">
        <ele>42.916</ele>
        <time>2014-07-06T09:01:42Z</time>
      </trkpt>
      <trkpt lat="59.9582111" lon="17.7133191">
        <ele>42.4354</ele>
        <time>2014-07-06T09:01:43Z</time>
      </trkpt>
      <trkpt lat="59.9582266" lon="17.7131798">
        <ele>41.474</ele>
        <time>2014-07-06T09:01:44Z</time>
      </trkpt>
      <trkpt lat="59.958245" lon="17.7130341">
        <ele>40.9934</ele>
        <time>2014-07-06T09:01:45Z</time>
      </trkpt>
      <trkpt lat="59.9582636" lon="17.7128857">
        <ele>40.9934</ele>
        <time>2014-07-06T09:01:46Z</time>
      </trkpt>
      <trkpt lat="59.9582798" lon="17.7127382">
        <ele>40.5128</ele>
        <time>2014-07-06T09:01:47Z</time>
      </trkpt>
      <trkpt lat="59.9582942" lon="17.7125938">
        <ele>40.0321</ele>
        <time>2014-07-06T09:01:48Z</time>
      </trkpt>
      <trkpt lat="59.9583094" lon="17.7124564">
        <ele>40.0321</ele>
        <time>2014-07-06T09:01:49Z</time>
      </trkpt>
      <trkpt lat="59.9583242" lon="17.7123245">
        <ele>39.5513</ele>
        <time>2014-07-06T09:01:50Z</time>
      </trkpt>
      <trkpt lat="59.9583385" lon="17.7121964">
        <ele>39.5513</ele>
        <time>2014-07-06T09:01:51Z</time>
      </trkpt>
      <trkpt lat="59.9583519" lon="17.7120712">
        <ele>39.0707</ele>
        <time>2014-07-06T09:01:52Z</time>
      </trkpt>
      <trkpt lat="59.9583657" lon="17.7119478">
        <ele>39.0707</ele>
        <time>2014-07-06T09:01:53Z</time>
      </trkpt>
      <trkpt lat="59.9583797" lon="17.7118255">
        <ele>39.0707</ele>
        <time>2014-07-06T09:01:54Z</time>
      </trkpt>
      <trkpt lat="59.9583928" lon="17.7117029">
        <ele>39.0707</ele>
        <time>2014-07-06T09:01:55Z</time>
      </trkpt>
      <trkpt lat="59.9584069" lon="17.7115854">
        <ele>39.0707</ele>
        <time>2014-07-06T09:01:56Z</time>
      </trkpt>
      <trkpt lat="59.9584212" lon="17.7114698">
        <ele>39.0707</ele>
        <time>2014-07-06T09:01:57Z</time>
      </trkpt>
      <trkpt lat="59.9584339" lon="17.7113543">
        <ele>38.5901</ele>
        <time>2014-07-06T09:01:58Z</time>
      </trkpt>
      <trkpt lat="59.9584476" lon="17.7112409">
        <ele>38.5901</ele>
        <time>2014-07-06T09:01:59Z</time>
      </trkpt>
      <trkpt lat="59.9584628" lon="17.7111311">
        <ele>38.5901</ele>
        <time>2014-07-06T09:02:00Z</time>
      </trkpt>
      <trkpt lat="59.9584794" lon="17.7110243">
        <ele>38.5901</ele>
        <time>2014-07-06T09:02:01Z</time>
      </trkpt>
      <trkpt lat="59.9584986" lon="17.7109211">
        <ele>38.5901</ele>
        <time>2014-07-06T09:02:02Z</time>
      </trkpt>
      <trkpt lat="59.958517" lon="17.7108207">
        <ele>38.5901</ele>
        <time>2014-07-06T09:02:03Z</time>
      </trkpt>
      <trkpt lat="59.9585317" lon="17.7107208">
        <ele>38.5901</ele>
        <time>2014-07-06T09:02:04Z</time>
      </trkpt>
      <trkpt lat="59.9585441" lon="17.7106208">
        <ele>38.5901</ele>
        <time>2014-07-06T09:02:05Z</time>
      </trkpt>
      <trkpt lat="59.9585565" lon="17.7105207">
        <ele>39.0707</ele>
        <time>2014-07-06T09:02:06Z</time>
      </trkpt>
      <trkpt lat="59.9585703" lon="17.7104214">
        <ele>39.0707</ele>
        <time>2014-07-06T09:02:07Z</time>
      </trkpt>
      <trkpt lat="59.9585848" lon="17.7103204">
        <ele>38.5901</ele>
        <time>2014-07-06T09:02:08Z</time>
      </trkpt>
      <trkpt lat="59.9585995" lon="17.7102188">
        <ele>38.5901</ele>
        <time>2014-07-06T09:02:09Z</time>
      </trkpt>
      <trkpt lat="59.9586155" lon="17.7101163">
        <ele>38.1094</ele>
        <time>2014-07-06T09:02:10Z</time>
      </trkpt>
      <trkpt lat="59.9586279" lon="17.7100096">
        <ele>38.1094</ele>
        <time>2014-07-06T09:02:11Z</time>
      </trkpt>
      <trkpt lat="59.9586406" lon="17.7099017">
        <ele>37.6287</ele>
        <time>2014-07-06T09:02:12Z</time>
      </trkpt>
      <trkpt lat="59.9586548" lon="17.709791">
        <ele>37.1481</ele>
        <time>2014-07-06T09:02:13Z</time>
      </trkpt>
      <trkpt lat="59.9586684" lon="17.7096784">
        <ele>36.6675</ele>
        <time>2014-07-06T09:02:14Z</time>
      </trkpt>
      <trkpt lat="59.9586834" lon="17.7095647">
        <ele>36.1868</ele>
        <time>2014-07-06T09:02:15Z</time>
      </trkpt>
      <trkpt lat="59.9586985" lon="17.7094492">
        <ele>35.7061</ele>
        <time>2014-07-06T09:02:16Z</time>
      </trkpt>
      <trkpt lat="59.958714" lon="17.7093269">
        <ele>35.2255</ele>
        <time>2014-07-06T09:02:17Z</time>
      </trkpt>
      <trkpt lat="59.9587319" lon="17.7092003">
        <ele>34.2642</ele>
        <time>2014-07-06T09:02:18Z</time>
      </trkpt>
      <trkpt lat="59.9587513" lon="17.7090683">
        <ele>33.7834</ele>
        <time>2014-07-06T09:02:19Z</time>
      </trkpt>
      <trkpt lat="59.958772" lon="17.7089285">
        <ele>33.7834</ele>
        <time>2014-07-06T09:02:20Z</time>
      </trkpt>
      <trkpt lat="59.9587896" lon="17.7087803">
        <ele>32.8223</ele>
        <time>2014-07-06T09:02:21Z</time>
      </trkpt>
      <trkpt lat="59.9588078" lon="17.7086229">
        <ele>32.3416</ele>
        <time>2014-07-06T09:02:22Z</time>
      </trkpt>
      <trkpt lat="59.9588249" lon="17.7084478">
        <ele>32.3416</ele>
        <time>2014-07-06T09:02:23Z</time>
      </trkpt>
      <trkpt lat="59.9588547" lon="17.7082457">
        <ele>32.3416</ele>
        <time>2014-07-06T09:02:24Z</time>
      </trkpt>
      <trkpt lat="59.9588796" lon="17.7080624">
        <ele>31.8607</ele>
        <time>2014-07-06T09:02:25Z</time>
      </trkpt>
      <trkpt lat="59.9588932" lon="17.7078846">
        <ele>31.3801</ele>
        <time>2014-07-06T09:02:26Z</time>
      </trkpt>
      <trkpt lat="59.9589206" lon="17.7077375">
        <ele>30.8995</ele>
        <time>2014-07-06T09:02:27Z</time>
      </trkpt>
      <trkpt lat="59.9589492" lon="17.7075895">
        <ele>30.4188</ele>
        <time>2014-07-06T09:02:28Z</time>
      </trkpt>
      <trkpt lat="59.9589803" lon="17.7074431">
        <ele>29.9381</ele>
        <time>2014-07-06T09:02:29Z</time>
      </trkpt>
      <trkpt lat="59.9590168" lon="17.7073039">
        <ele>30.4188</ele>
        <time>2014-07-06T09:02:30Z</time>
      </trkpt>
      <trkpt lat="59.9590507" lon="17.7071777">
        <ele>30.4188</ele>
        <time>2014-07-06T09:02:31Z</time>
      </trkpt>
      <trkpt lat="59.9590857" lon="17.7070642">
        <ele>31.3801</ele>
        <time>2014-07-06T09:02:32Z</time>
      </trkpt>
      <trkpt lat="59.9591149" lon="17.7069585">
        <ele>31.3801</ele>
        <time>2014-07-06T09:02:33Z</time>
      </trkpt>
      <trkpt lat="59.9591434" lon="17.7068564">
        <ele>31.8607</ele>
        <time>2014-07-06T09:02:34Z</time>
      </trkpt>
      <trkpt lat="59.9591761" lon="17.7067637">
        <ele>32.3416</ele>
        <time>2014-07-06T09:02:35Z</time>
      </trkpt>
      <trkpt lat="59.9592095" lon="17.7066768">
        <ele>32.3416</ele>
        <time>2014-07-06T09:02:36Z</time>
      </trkpt>
      <trkpt lat="59.9592424" lon="17.7065921">
        <ele>32.3416</ele>
        <time>2014-07-06T09:02:37Z</time>
      </trkpt>
      <trkpt lat="59.9592728" lon="17.7065115">
        <ele>32.8223</ele>
        <time>2014-07-06T09:02:38Z</time>
      </trkpt>
      <trkpt lat="59.9593035" lon="17.7064369">
        <ele>33.3029</ele>
        <time>2014-07-06T09:02:39Z</time>
      </trkpt>
      <trkpt lat="59.959332" lon="17.7063577">
        <ele>33.3029</ele>
        <time>2014-07-06T09:02:40Z</time>
      </trkpt>
      <trkpt lat="59.9593615" lon="17.7062856">
        <ele>33.3029</ele>
        <time>2014-07-06T09:02:41Z</time>
      </trkpt>
      <trkpt lat="59.9593913" lon="17.7062006">
        <ele>33.7834</ele>
        <time>2014-07-06T09:02:42Z</time>
      </trkpt>
      <trkpt lat="59.9594221" lon="17.7061302">
        <ele>33.7834</ele>
        <time>2014-07-06T09:02:43Z</time>
      </trkpt>
      <trkpt lat="59.9594526" lon="17.70605">
        <ele>33.3029</ele>
        <time>2014-07-06T09:02:44Z</time>
      </trkpt>
      <trkpt lat="59.9594801" lon="17.7059732">
        <ele>32.8223</ele>
        <time>2014-07-06T09:02:45Z</time>
      </trkpt>
      <trkpt lat="59.9595092" lon="17.7058979">
        <ele>32.3416</ele>
        <time>2014-07-06T09:02:46Z</time>
      </trkpt>
      <trkpt lat="59.9595377" lon="17.7058163">
        <ele>32.3416</ele>
        <time>2014-07-06T09:02:47Z</time>
      </trkpt>
      <trkpt lat="59.9595673" lon="17.7057337">
        <ele>31.8607</ele>
        <time>2014-07-06T09:02:48Z</time>
      </trkpt>
      <trkpt lat="59.9595982" lon="17.7056548">
        <ele>31.3801</ele>
        <time>2014-07-06T09:02:49Z</time>
      </trkpt>
      <trkpt lat="59.9596271" lon="17.7055605">
        <ele>32.3416</ele>
        <time>2014-07-06T09:02:50Z</time>
      </trkpt>
      <trkpt lat="59.9596573" lon="17.7054805">
        <ele>32.3416</ele>
        <time>2014-07-06T09:02:51Z</time>
      </trkpt>
      <trkpt lat="59.9596866" lon="17.705405">
        <ele>32.3416</ele>
        <time>2014-07-06T09:02:52Z</time>
      </trkpt>
      <trkpt lat="59.9597174" lon="17.705333">
        <ele>32.8223</ele>
        <time>2014-07-06T09:02:53Z</time>
      </trkpt>
      <trkpt lat="59.9597469" lon="17.7052605">
        <ele>32.8223</ele>
        <time>2014-07-06T09:02:54Z</time>
      </trkpt>
      <trkpt lat="59.9597754" lon="17.7051883">
        <ele>32.8223</ele>
        <time>2014-07-06T09:02:55Z</time>
      </trkpt>
      <trkpt lat="59.9598049" lon="17.7051185">
        <ele>32.8223</ele>
        <time>2014-07-06T09:02:56Z</time>
      </trkpt>
      <trkpt lat="59.959836" lon="17.7050512">
        <ele>32.3416</ele>
        <time>2014-07-06T09:02:57Z</time>
      </trkpt>
      <trkpt lat="59.9598669" lon="17.7049849">
        <ele>32.8223</ele>
        <time>2014-07-06T09:02:58Z</time>
      </trkpt>
      <trkpt lat="59.9598935" lon="17.7049155">
        <ele>32.3416</ele>
        <time>2014-07-06T09:02:59Z</time>
      </trkpt>
      <trkpt lat="59.9599193" lon="17.704844">
        <ele>31.8607</ele>
        <time>2014-07-06T09:03:00Z</time>
      </trkpt>
      <trkpt lat="59.9599467" lon="17.7047724">
        <ele>31.8607</ele>
        <time>2014-07-06T09:03:01Z</time>
      </trkpt>
      <trkpt lat="59.9599748" lon="17.7047">
        <ele>31.8607</ele>
        <time>2014-07-06T09:03:02Z</time>
      </trkpt>
      <trkpt lat="59.9600031" lon="17.7046263">
        <ele>31.8607</ele>
        <time>2014-07-06T09:03:03Z</time>
      </trkpt>
      <trkpt lat="59.960033" lon="17.7045537">
        <ele>31.8607</ele>
        <time>2014-07-06T09:03:04Z</time>
      </trkpt>
      <trkpt lat="59.9600665" lon="17.7044952">
        <ele>31.8607</ele>
        <time>2014-07-06T09:03:05Z</time>
      </trkpt>
      <trkpt lat="59.9601038" lon="17.7044612">
        <ele>32.3416</ele>
        <time>2014-07-06T09:03:06Z</time>
      </trkpt>
      <trkpt lat="59.9601406" lon="17.7044529">
        <ele>32.3416</ele>
        <time>2014-07-06T09:03:07Z</time>
      </trkpt>
      <trkpt lat="59.9601763" lon="17.7044692">
        <ele>32.3416</ele>
        <time>2014-07-06T09:03:08Z</time>
      </trkpt>
      <trkpt lat="59.9602088" lon="17.7045019">
        <ele>32.8223</ele>
        <time>2014-07-06T09:03:09Z</time>
      </trkpt>
      <trkpt lat="59.9602388" lon="17.70454">
        <ele>32.8223</ele>
        <time>2014-07-06T09:03:10Z</time>
      </trkpt>
      <trkpt lat="59.9602684" lon="17.7045783">
        <ele>32.8223</ele>
        <time>2014-07-06T09:03:11Z</time>
      </trkpt>
      <trkpt lat="59.9602992" lon="17.7046174">
        <ele>32.8223</ele>
        <time>2014-07-06T09:03:12Z</time>
      </trkpt>
      <trkpt lat="59.9603319" lon="17.7046573">
        <ele>32.8223</ele>
        <time>2014-07-06T09:03:13Z</time>
      </trkpt>
      <trkpt lat="59.9603665" lon="17.7046975">
        <ele>32.8223</ele>
        <time>2014-07-06T09:03:14Z</time>
      </trkpt>
      <trkpt lat="59.9604043" lon="17.7047348">
        <ele>33.3029</ele>
        <time>2014-07-06T09:03:15Z</time>
      </trkpt>
      <trkpt lat="59.9604414" lon="17.7047751">
        <ele>33.3029</ele>
        <time>2014-07-06T09:03:16Z</time>
      </trkpt>
      <trkpt lat="59.9604773" lon="17.7048223">
        <ele>33.3029</ele>
        <time>2014-07-06T09:03:17Z</time>
      </trkpt>
      <trkpt lat="59.9605136" lon="17.7048707">
        <ele>33.7834</ele>
        <time>2014-07-06T09:03:18Z</time>
      </trkpt>
      <trkpt lat="59.9605502" lon="17.7049149">
        <ele>33.7834</ele>
        <time>2014-07-06T09:03:19Z</time>
      </trkpt>
      <trkpt lat="59.9605878" lon="17.7049563">
        <ele>33.7834</ele>
        <time>2014-07-06T09:03:20Z</time>
      </trkpt>
      <trkpt lat="59.960627" lon="17.7049988">
        <ele>34.2642</ele>
        <time>2014-07-06T09:03:21Z</time>
      </trkpt>
      <trkpt lat="59.9606627" lon="17.7050417">
        <ele>33.7834</ele>
        <time>2014-07-06T09:03:22Z</time>
      </trkpt>
      <trkpt lat="59.9606985" lon="17.7050849">
        <ele>34.2642</ele>
        <time>2014-07-06T09:03:23Z</time>
      </trkpt>
      <trkpt lat="59.9607336" lon="17.7051289">
        <ele>34.2642</ele>
        <time>2014-07-06T09:03:24Z</time>
      </trkpt>
      <trkpt lat="59.960771" lon="17.7051776">
        <ele>34.2642</ele>
        <time>2014-07-06T09:03:25Z</time>
      </trkpt>
      <trkpt lat="59.9608089" lon="17.7052304">
        <ele>34.2642</ele>
        <time>2014-07-06T09:03:26Z</time>
      </trkpt>
      <trkpt lat="59.9608449" lon="17.7052858">
        <ele>34.2642</ele>
        <time>2014-07-06T09:03:27Z</time>
      </trkpt>
      <trkpt lat="59.9608824" lon="17.7053418">
        <ele>34.2642</ele>
        <time>2014-07-06T09:03:28Z</time>
      </trkpt>
      <trkpt lat="59.9609215" lon="17.705397">
        <ele>34.7449</ele>
        <time>2014-07-06T09:03:29Z</time>
      </trkpt>
      <trkpt lat="59.9609575" lon="17.7054533">
        <ele>34.7449</ele>
        <time>2014-07-06T09:03:30Z</time>
      </trkpt>
      <trkpt lat="59.9609923" lon="17.7055107">
        <ele>34.7449</ele>
        <time>2014-07-06T09:03:31Z</time>
      </trkpt>
      <trkpt lat="59.9610272" lon="17.7055671">
        <ele>34.7449</ele>
        <time>2014-07-06T09:03:32Z</time>
      </trkpt>
      <trkpt lat="59.9610621" lon="17.7056244">
        <ele>34.7449</ele>
        <time>2014-07-06T09:03:33Z</time>
      </trkpt>
      <trkpt lat="59.9610958" lon="17.7056819">
        <ele>35.2255</ele>
        <time>2014-07-06T09:03:34Z</time>
      </trkpt>
      <trkpt lat="59.9611269" lon="17.7057396">
        <ele>35.2255</ele>
        <time>2014-07-06T09:03:35Z</time>
      </trkpt>
      <trkpt lat="59.961157" lon="17.7057987">
        <ele>35.2255</ele>
        <time>2014-07-06T09:03:36Z</time>
      </trkpt>
      <trkpt lat="59.9611889" lon="17.7058591">
        <ele>35.7061</ele>
        <time>2014-07-06T09:03:37Z</time>
      </trkpt>
      <trkpt lat="59.9612211" lon="17.7059189">
        <ele>35.7061</ele>
        <time>2014-07-06T09:03:38Z</time>
      </trkpt>
      <trkpt lat="59.9612541" lon="17.70598">
        <ele>35.7061</ele>
        <time>2014-07-06T09:03:39Z</time>
      </trkpt>
      <trkpt lat="59.9612869" lon="17.7060395">
        <ele>35.7061</ele>
        <time>2014-07-06T09:03:40Z</time>
      </trkpt>
      <trkpt lat="59.961321" lon="17.7060987">
        <ele>35.7061</ele>
        <time>2014-07-06T09:03:41Z</time>
      </trkpt>
      <trkpt lat="59.9613546" lon="17.7061591">
        <ele>36.1868</ele>
        <time>2014-07-06T09:03:42Z</time>
      </trkpt>
      <trkpt lat="59.9613874" lon="17.7062198">
        <ele>36.1868</ele>
        <time>2014-07-06T09:03:43Z</time>
      </trkpt>
      <trkpt lat="59.9614226" lon="17.7062794">
        <ele>36.1868</ele>
        <time>2014-07-06T09:03:44Z</time>
      </trkpt>
      <trkpt lat="59.9614593" lon="17.7063377">
        <ele>36.1868</ele>
        <time>2014-07-06T09:03:45Z</time>
      </trkpt>
      <trkpt lat="59.9614953" lon="17.7063931">
        <ele>36.6675</ele>
        <time>2014-07-06T09:03:46Z</time>
      </trkpt>
      <trkpt lat="59.961531" lon="17.7064462">
        <ele>36.6675</ele>
        <time>2014-07-06T09:03:47Z</time>
      </trkpt>
      <trkpt lat="59.9615672" lon="17.7064943">
        <ele>36.6675</ele>
        <time>2014-07-06T09:03:48Z</time>
      </trkpt>
      <trkpt lat="59.9616056" lon="17.7065349">
        <ele>36.6675</ele>
        <time>2014-07-06T09:03:49Z</time>
      </trkpt>
      <trkpt lat="59.9616433" lon="17.706573">
        <ele>36.6675</ele>
        <time>2014-07-06T09:03:50Z</time>
      </trkpt>
      <trkpt lat="59.9616812" lon="17.7066104">
        <ele>36.6675</ele>
        <time>2014-07-06T09:03:51Z</time>
      </trkpt>
      <trkpt lat="59.9617204" lon="17.7066481">
        <ele>36.1868</ele>
        <time>2014-07-06T09:03:52Z</time>
      </trkpt>
      <trkpt lat="59.9617641" lon="17.7066858">
        <ele>36.6675</ele>
        <time>2014-07-06T09:03:53Z</time>
      </trkpt>
      <trkpt lat="59.9618076" lon="17.7067231">
        <ele>36.6675</ele>
        <time>2014-07-06T09:03:54Z</time>
      </trkpt>
      <trkpt lat="59.9618498" lon="17.7067596">
        <ele>36.1868</ele>
        <time>2014-07-06T09:03:55Z</time>
      </trkpt>
      <trkpt lat="59.9618916" lon="17.7067922">
        <ele>36.1868</ele>
        <time>2014-07-06T09:03:56Z</time>
      </trkpt>
      <trkpt lat="59.9619343" lon="17.706822">
        <ele>36.1868</ele>
        <time>2014-07-06T09:03:57Z</time>
      </trkpt>
      <trkpt lat="59.9619779" lon="17.7068518">
        <ele>36.1868</ele>
        <time>2014-07-06T09:03:58Z</time>
      </trkpt>
      <trkpt lat="59.9620215" lon="17.7068799">
        <ele>35.7061</ele>
        <time>2014-07-06T09:03:59Z</time>
      </trkpt>
      <trkpt lat="59.9620669" lon="17.7069082">
        <ele>35.7061</ele>
        <time>2014-07-06T09:04:00Z</time>
      </trkpt>
      <trkpt lat="59.9621137" lon="17.7069379">
        <ele>35.7061</ele>
        <time>2014-07-06T09:04:01Z</time>
      </trkpt>
      <trkpt lat="59.9621609" lon="17.7069657">
        <ele>35.7061</ele>
        <time>2014-07-06T09:04:02Z</time>
      </trkpt>
      <trkpt lat="59.962207" lon="17.7069921">
        <ele>35.7061</ele>
        <time>2014-07-06T09:04:03Z</time>
      </trkpt>
      <trkpt lat="59.9622525" lon="17.7070179">
        <ele>35.2255</ele>
        <time>2014-07-06T09:04:04Z</time>
      </trkpt>
      <trkpt lat="59.9622979" lon="17.7070407">
        <ele>35.2255</ele>
        <time>2014-07-06T09:04:05Z</time>
      </trkpt>
      <trkpt lat="59.9623437" lon="17.7070611">
        <ele>35.2255</ele>
        <time>2014-07-06T09:04:06Z</time>
      </trkpt>
      <trkpt lat="59.9623919" lon="17.7070818">
        <ele>35.2255</ele>
        <time>2014-07-06T09:04:07Z</time>
      </trkpt>
      <trkpt lat="59.962441" lon="17.7071029">
        <ele>35.2255</ele>
        <time>2014-07-06T09:04:08Z</time>
      </trkpt>
      <trkpt lat="59.9624903" lon="17.7071223">
        <ele>34.7449</ele>
        <time>2014-07-06T09:04:09Z</time>
      </trkpt>
      <trkpt lat="59.9625401" lon="17.7071398">
        <ele>34.7449</ele>
        <time>2014-07-06T09:04:10Z</time>
      </trkpt>
      <trkpt lat="59.9625898" lon="17.7071534">
        <ele>35.2255</ele>
        <time>2014-07-06T09:04:11Z</time>
      </trkpt>
      <trkpt lat="59.9626404" lon="17.7071673">
        <ele>35.2255</ele>
        <time>2014-07-06T09:04:12Z</time>
      </trkpt>
      <trkpt lat="59.9626918" lon="17.7071791">
        <ele>35.2255</ele>
        <time>2014-07-06T09:04:13Z</time>
      </trkpt>
      <trkpt lat="59.9627436" lon="17.7071881">
        <ele>35.2255</ele>
        <time>2014-07-06T09:04:14Z</time>
      </trkpt>
      <trkpt lat="59.9627955" lon="17.7071978">
        <ele>34.7449</ele>
        <time>2014-07-06T09:04:15Z</time>
      </trkpt>
      <trkpt lat="59.9628475" lon="17.707207">
        <ele>34.7449</ele>
        <time>2014-07-06T09:04:16Z</time>
      </trkpt>
      <trkpt lat="59.9628999" lon="17.7072124">
        <ele>34.7449</ele>
        <time>2014-07-06T09:04:17Z</time>
      </trkpt>
      <trkpt lat="59.9629524" lon="17.7072143">
        <ele>34.7449</ele>
        <time>2014-07-06T09:04:18Z</time>
      </trkpt>
      <trkpt lat="59.9630051" lon="17.7072139">
        <ele>34.7449</ele>
        <time>2014-07-06T09:04:19Z</time>
      </trkpt>
      <trkpt lat="59.9630579" lon="17.7072124">
        <ele>34.7449</ele>
        <time>2014-07-06T09:04:20Z</time>
      </trkpt>
      <trkpt lat="59.9631109" lon="17.7072103">
        <ele>34.7449</ele>
        <time>2014-07-06T09:04:21Z</time>
      </trkpt>
      <trkpt lat="59.9631649" lon="17.7072081">
        <ele>34.7449</ele>
        <time>2014-07-06T09:04:22Z</time>
      </trkpt>
      <trkpt lat="59.9632202" lon="17.7072072">
        <ele>34.7449</ele>
        <time>2014-07-06T09:04:23Z</time>
      </trkpt>
      <trkpt lat="59.9632759" lon="17.7072088">
        <ele>34.2642</ele>
        <time>2014-07-06T09:04:24Z</time>
      </trkpt>
      <trkpt lat="59.9633325" lon="17.7072092">
        <ele>34.2642</ele>
        <time>2014-07-06T09:04:25Z</time>
      </trkpt>
      <trkpt lat="59.9633905" lon="17.7072076">
        <ele>34.2642</ele>
        <time>2014-07-06T09:04:26Z</time>
      </trkpt>
      <trkpt lat="59.9634494" lon="17.7072066">
        <ele>34.2642</ele>
        <time>2014-07-06T09:04:27Z</time>
      </trkpt>
      <trkpt lat="59.9635082" lon="17.7072085">
        <ele>34.2642</ele>
        <time>2014-07-06T09:04:28Z</time>
      </trkpt>
      <trkpt lat="59.9635667" lon="17.7072121">
        <ele>34.2642</ele>
        <time>2014-07-06T09:04:29Z</time>
      </trkpt>
      <trkpt lat="59.9636242" lon="17.707216">
        <ele>34.2642</ele>
        <time>2014-07-06T09:04:30Z</time>
      </trkpt>
      <trkpt lat="59.9636816" lon="17.7072222">
        <ele>34.2642</ele>
        <time>2014-07-06T09:04:31Z</time>
      </trkpt>
      <trkpt lat="59.9637391" lon="17.7072282">
        <ele>34.2642</ele>
        <time>2014-07-06T09:04:32Z</time>
      </trkpt>
      <trkpt lat="59.9637961" lon="17.7072335">
        <ele>33.7834</ele>
        <time>2014-07-06T09:04:33Z</time>
      </trkpt>
      <trkpt lat="59.9638532" lon="17.7072396">
        <ele>33.7834</ele>
        <time>2014-07-06T09:04:34Z</time>
      </trkpt>
      <trkpt lat="59.9639094" lon="17.7072468">
        <ele>33.7834</ele>
        <time>2014-07-06T09:04:35Z</time>
      </trkpt>
      <trkpt lat="59.9639645" lon="17.7072552">
        <ele>33.7834</ele>
        <time>2014-07-06T09:04:36Z</time>
      </trkpt>
      <trkpt lat="59.9640185" lon="17.7072646">
        <ele>33.7834</ele>
        <time>2014-07-06T09:04:37Z</time>
      </trkpt>
      <trkpt lat="59.9640723" lon="17.707275">
        <ele>33.7834</ele>
        <time>2014-07-06T09:04:38Z</time>
      </trkpt>
      <trkpt lat="59.9641262" lon="17.7072865">
        <ele>33.7834</ele>
        <time>2014-07-06T09:04:39Z</time>
      </trkpt>
      <trkpt lat="59.9641804" lon="17.7072983">
        <ele>33.7834</ele>
        <time>2014-07-06T09:04:40Z</time>
      </trkpt>
      <trkpt lat="59.9642342" lon="17.7073097">
        <ele>33.7834</ele>
        <time>2014-07-06T09:04:41Z</time>
      </trkpt>
      <trkpt lat="59.9642879" lon="17.7073248">
        <ele>33.7834</ele>
        <time>2014-07-06T09:04:42Z</time>
      </trkpt>
      <trkpt lat="59.9643428" lon="17.707343">
        <ele>33.7834</ele>
        <time>2014-07-06T09:04:43Z</time>
      </trkpt>
      <trkpt lat="59.9643985" lon="17.7073636">
        <ele>33.7834</ele>
        <time>2014-07-06T09:04:44Z</time>
      </trkpt>
      <trkpt lat="59.9644544" lon="17.7073869">
        <ele>33.7834</ele>
        <time>2014-07-06T09:04:45Z</time>
      </trkpt>
      <trkpt lat="59.9645091" lon="17.7074117">
        <ele>33.7834</ele>
        <time>2014-07-06T09:04:46Z</time>
      </trkpt>
      <trkpt lat="59.9645624" lon="17.7074407">
        <ele>33.7834</ele>
        <time>2014-07-06T09:04:47Z</time>
      </trkpt>
      <trkpt lat="59.9646155" lon="17.7074718">
        <ele>33.3029</ele>
        <time>2014-07-06T09:04:48Z</time>
      </trkpt>
      <trkpt lat="59.9646695" lon="17.707505">
        <ele>33.3029</ele>
        <time>2014-07-06T09:04:49Z</time>
      </trkpt>
      <trkpt lat="59.9647238" lon="17.7075395">
        <ele>33.3029</ele>
        <time>2014-07-06T09:04:50Z</time>
      </trkpt>
      <trkpt lat="59.9647774" lon="17.7075744">
        <ele>33.7834</ele>
        <time>2014-07-06T09:04:51Z</time>
      </trkpt>
      <trkpt lat="59.9648301" lon="17.7076133">
        <ele>33.3029</ele>
        <time>2014-07-06T09:04:52Z</time>
      </trkpt>
      <trkpt lat="59.9648828" lon="17.7076534">
        <ele>33.3029</ele>
        <time>2014-07-06T09:04:53Z</time>
      </trkpt>
      <trkpt lat="59.9649366" lon="17.7076946">
        <ele>33.3029</ele>
        <time>2014-07-06T09:04:54Z</time>
      </trkpt>
      <trkpt lat="59.9649919" lon="17.7077371">
        <ele>33.3029</ele>
        <time>2014-07-06T09:04:55Z</time>
      </trkpt>
      <trkpt lat="59.965047" lon="17.7077794">
        <ele>33.3029</ele>
        <time>2014-07-06T09:04:56Z</time>
      </trkpt>
      <trkpt lat="59.9651021" lon="17.7078228">
        <ele>33.3029</ele>
        <time>2014-07-06T09:04:57Z</time>
      </trkpt>
      <trkpt lat="59.9651579" lon="17.7078677">
        <ele>33.3029</ele>
        <time>2014-07-06T09:04:58Z</time>
      </trkpt>
      <trkpt lat="59.9652145" lon="17.7079137">
        <ele>33.3029</ele>
        <time>2014-07-06T09:04:59Z</time>
      </trkpt>
      <trkpt lat="59.9652704" lon="17.7079612">
        <ele>33.3029</ele>
        <time>2014-07-06T09:05:00Z</time>
      </trkpt>
      <trkpt lat="59.9653253" lon="17.7080088">
        <ele>33.3029</ele>
        <time>2014-07-06T09:05:01Z</time>
      </trkpt>
      <trkpt lat="59.9653798" lon="17.7080565">
        <ele>33.3029</ele>
        <time>2014-07-06T09:05:02Z</time>
      </trkpt>
      <trkpt lat="59.9654339" lon="17.7081073">
        <ele>33.3029</ele>
        <time>2014-07-06T09:05:03Z</time>
      </trkpt>
      <trkpt lat="59.9654864" lon="17.7081608">
        <ele>33.3029</ele>
        <time>2014-07-06T09:05:04Z</time>
      </trkpt>
      <trkpt lat="59.9655858" lon="17.7082779">
        <ele>33.3029</ele>
        <time>2014-07-06T09:05:06Z</time>
      </trkpt>
      <trkpt lat="59.9656326" lon="17.7083427">
        <ele>33.3029</ele>
        <time>2014-07-06T09:05:07Z</time>
      </trkpt>
      <trkpt lat="59.9656776" lon="17.7084142">
        <ele>32.8223</ele>
        <time>2014-07-06T09:05:08Z</time>
      </trkpt>
      <trkpt lat="59.9657217" lon="17.7084907">
        <ele>32.8223</ele>
        <time>2014-07-06T09:05:09Z</time>
      </trkpt>
      <trkpt lat="59.9657631" lon="17.7085711">
        <ele>32.8223</ele>
        <time>2014-07-06T09:05:10Z</time>
      </trkpt>
      <trkpt lat="59.9658008" lon="17.7086561">
        <ele>32.8223</ele>
        <time>2014-07-06T09:05:11Z</time>
      </trkpt>
      <trkpt lat="59.9658352" lon="17.7087425">
        <ele>32.8223</ele>
        <time>2014-07-06T09:05:12Z</time>
      </trkpt>
      <trkpt lat="59.9658683" lon="17.7088315">
        <ele>32.8223</ele>
        <time>2014-07-06T09:05:13Z</time>
      </trkpt>
      <trkpt lat="59.9659007" lon="17.7089249">
        <ele>33.3029</ele>
        <time>2014-07-06T09:05:14Z</time>
      </trkpt>
      <trkpt lat="59.9659314" lon="17.7090201">
        <ele>32.8223</ele>
        <time>2014-07-06T09:05:15Z</time>
      </trkpt>
      <trkpt lat="59.9659614" lon="17.7091146">
        <ele>33.3029</ele>
        <time>2014-07-06T09:05:16Z</time>
      </trkpt>
      <trkpt lat="59.9659904" lon="17.7092086">
        <ele>33.3029</ele>
        <time>2014-07-06T09:05:17Z</time>
      </trkpt>
      <trkpt lat="59.9660188" lon="17.7093015">
        <ele>33.3029</ele>
        <time>2014-07-06T09:05:18Z</time>
      </trkpt>
      <trkpt lat="59.9660463" lon="17.709394">
        <ele>33.3029</ele>
        <time>2014-07-06T09:05:19Z</time>
      </trkpt>
      <trkpt lat="59.9660728" lon="17.7094857">
        <ele>33.3029</ele>
        <time>2014-07-06T09:05:20Z</time>
      </trkpt>
      <trkpt lat="59.9660993" lon="17.7095775">
        <ele>33.7834</ele>
        <time>2014-07-06T09:05:21Z</time>
      </trkpt>
      <trkpt lat="59.9661262" lon="17.7096678">
        <ele>33.7834</ele>
        <time>2014-07-06T09:05:22Z</time>
      </trkpt>
      <trkpt lat="59.9661527" lon="17.7097538">
        <ele>34.2642</ele>
        <time>2014-07-06T09:05:23Z</time>
      </trkpt>
      <trkpt lat="59.9661784" lon="17.7098412">
        <ele>34.2642</ele>
        <time>2014-07-06T09:05:24Z</time>
      </trkpt>
      <trkpt lat="59.966203" lon="17.7099314">
        <ele>34.2642</ele>
        <time>2014-07-06T09:05:25Z</time>
      </trkpt>
      <trkpt lat="59.9662283" lon="17.710019">
        <ele>34.2642</ele>
        <time>2014-07-06T09:05:26Z</time>
      </trkpt>
      <trkpt lat="59.9662531" lon="17.7101059">
        <ele>34.2642</ele>
        <time>2014-07-06T09:05:27Z</time>
      </trkpt>
      <trkpt lat="59.966278" lon="17.7101939">
        <ele>34.7449</ele>
        <time>2014-07-06T09:05:28Z</time>
      </trkpt>
      <trkpt lat="59.9663024" lon="17.7102825">
        <ele>34.7449</ele>
        <time>2014-07-06T09:05:29Z</time>
      </trkpt>
      <trkpt lat="59.9663275" lon="17.7103717">
        <ele>34.7449</ele>
        <time>2014-07-06T09:05:30Z</time>
      </trkpt>
      <trkpt lat="59.9663527" lon="17.7104605">
        <ele>34.7449</ele>
        <time>2014-07-06T09:05:31Z</time>
      </trkpt>
      <trkpt lat="59.966378" lon="17.7105466">
        <ele>34.7449</ele>
        <time>2014-07-06T09:05:32Z</time>
      </trkpt>
      <trkpt lat="59.9664026" lon="17.7106305">
        <ele>34.7449</ele>
        <time>2014-07-06T09:05:33Z</time>
      </trkpt>
      <trkpt lat="59.9664264" lon="17.710713">
        <ele>35.2255</ele>
        <time>2014-07-06T09:05:34Z</time>
      </trkpt>
      <trkpt lat="59.9664504" lon="17.7107947">
        <ele>35.2255</ele>
        <time>2014-07-06T09:05:35Z</time>
      </trkpt>
      <trkpt lat="59.9664742" lon="17.7108767">
        <ele>35.2255</ele>
        <time>2014-07-06T09:05:36Z</time>
      </trkpt>
      <trkpt lat="59.9664967" lon="17.71096">
        <ele>35.2255</ele>
        <time>2014-07-06T09:05:37Z</time>
      </trkpt>
      <trkpt lat="59.9665199" lon="17.7110443">
        <ele>35.7061</ele>
        <time>2014-07-06T09:05:38Z</time>
      </trkpt>
      <trkpt lat="59.9665426" lon="17.7111265">
        <ele>35.7061</ele>
        <time>2014-07-06T09:05:39Z</time>
      </trkpt>
      <trkpt lat="59.966566" lon="17.7112063">
        <ele>35.7061</ele>
        <time>2014-07-06T09:05:40Z</time>
      </trkpt>
      <trkpt lat="59.9665892" lon="17.7112859">
        <ele>35.7061</ele>
        <time>2014-07-06T09:05:41Z</time>
      </trkpt>
      <trkpt lat="59.9666124" lon="17.7113657">
        <ele>35.7061</ele>
        <time>2014-07-06T09:05:42Z</time>
      </trkpt>
      <trkpt lat="59.9666354" lon="17.7114445">
        <ele>35.7061</ele>
        <time>2014-07-06T09:05:43Z</time>
      </trkpt>
      <trkpt lat="59.9666596" lon="17.7115211">
        <ele>35.7061</ele>
        <time>2014-07-06T09:05:44Z</time>
      </trkpt>
      <trkpt lat="59.9666846" lon="17.7115997">
        <ele>35.7061</ele>
        <time>2014-07-06T09:05:45Z</time>
      </trkpt>
      <trkpt lat="59.9667036" lon="17.7116838">
        <ele>35.7061</ele>
        <time>2014-07-06T09:05:46Z</time>
      </trkpt>
      <trkpt lat="59.9667199" lon="17.7117678">
        <ele>35.7061</ele>
        <time>2014-07-06T09:05:47Z</time>
      </trkpt>
      <trkpt lat="59.966739" lon="17.7118429">
        <ele>35.7061</ele>
        <time>2014-07-06T09:05:48Z</time>
      </trkpt>
      <trkpt lat="59.9667604" lon="17.711909">
        <ele>35.7061</ele>
        <time>2014-07-06T09:05:49Z</time>
      </trkpt>
      <trkpt lat="59.9667839" lon="17.7119726">
        <ele>35.7061</ele>
        <time>2014-07-06T09:05:50Z</time>
      </trkpt>
      <trkpt lat="59.9668082" lon="17.7120379">
        <ele>35.7061</ele>
        <time>2014-07-06T09:05:51Z</time>
      </trkpt>
      <trkpt lat="59.9668322" lon="17.712104">
        <ele>35.7061</ele>
        <time>2014-07-06T09:05:52Z</time>
      </trkpt>
      <trkpt lat="59.966855" lon="17.7121698">
        <ele>35.7061</ele>
        <time>2014-07-06T09:05:53Z</time>
      </trkpt>
      <trkpt lat="59.9668793" lon="17.7122359">
        <ele>35.7061</ele>
        <time>2014-07-06T09:05:54Z</time>
      </trkpt>
      <trkpt lat="59.9669032" lon="17.7123044">
        <ele>35.7061</ele>
        <time>2014-07-06T09:05:55Z</time>
      </trkpt>
      <trkpt lat="59.9669255" lon="17.7123779">
        <ele>35.7061</ele>
        <time>2014-07-06T09:05:56Z</time>
      </trkpt>
      <trkpt lat="59.9669481" lon="17.712455">
        <ele>35.7061</ele>
        <time>2014-07-06T09:05:57Z</time>
      </trkpt>
      <trkpt lat="59.9669685" lon="17.7125341">
        <ele>35.7061</ele>
        <time>2014-07-06T09:05:58Z</time>
      </trkpt>
      <trkpt lat="59.9669862" lon="17.7126141">
        <ele>35.7061</ele>
        <time>2014-07-06T09:05:59Z</time>
      </trkpt>
      <trkpt lat="59.9670045" lon="17.7126938">
        <ele>35.7061</ele>
        <time>2014-07-06T09:06:00Z</time>
      </trkpt>
      <trkpt lat="59.9670211" lon="17.7127738">
        <ele>35.7061</ele>
        <time>2014-07-06T09:06:01Z</time>
      </trkpt>
      <trkpt lat="59.967037" lon="17.7128559">
        <ele>35.2255</ele>
        <time>2014-07-06T09:06:02Z</time>
      </trkpt>
      <trkpt lat="59.9670535" lon="17.7129389">
        <ele>35.2255</ele>
        <time>2014-07-06T09:06:03Z</time>
      </trkpt>
      <trkpt lat="59.9670721" lon="17.7130245">
        <ele>35.2255</ele>
        <time>2014-07-06T09:06:04Z</time>
      </trkpt>
      <trkpt lat="59.9670898" lon="17.7131115">
        <ele>34.7449</ele>
        <time>2014-07-06T09:06:05Z</time>
      </trkpt>
      <trkpt lat="59.9671079" lon="17.7131984">
        <ele>34.7449</ele>
        <time>2014-07-06T09:06:06Z</time>
      </trkpt>
      <trkpt lat="59.9671263" lon="17.7132864">
        <ele>34.2642</ele>
        <time>2014-07-06T09:06:07Z</time>
      </trkpt>
      <trkpt lat="59.967145" lon="17.7133764">
        <ele>34.2642</ele>
        <time>2014-07-06T09:06:08Z</time>
      </trkpt>
      <trkpt lat="59.9671633" lon="17.7134689">
        <ele>34.2642</ele>
        <time>2014-07-06T09:06:09Z</time>
      </trkpt>
      <trkpt lat="59.9671812" lon="17.7135647">
        <ele>33.7834</ele>
        <time>2014-07-06T09:06:10Z</time>
      </trkpt>
      <trkpt lat="59.967198" lon="17.7136642">
        <ele>33.7834</ele>
        <time>2014-07-06T09:06:11Z</time>
      </trkpt>
      <trkpt lat="59.9672135" lon="17.7137671">
        <ele>33.3029</ele>
        <time>2014-07-06T09:06:12Z</time>
      </trkpt>
      <trkpt lat="59.967229" lon="17.7138724">
        <ele>33.3029</ele>
        <time>2014-07-06T09:06:13Z</time>
      </trkpt>
      <trkpt lat="59.9672449" lon="17.7139813">
        <ele>32.8223</ele>
        <time>2014-07-06T09:06:14Z</time>
      </trkpt>
      <trkpt lat="59.9672606" lon="17.7140939">
        <ele>32.8223</ele>
        <time>2014-07-06T09:06:15Z</time>
      </trkpt>
      <trkpt lat="59.9672766" lon="17.7142081">
        <ele>32.3416</ele>
        <time>2014-07-06T09:06:16Z</time>
      </trkpt>
      <trkpt lat="59.9672938" lon="17.7143245">
        <ele>32.3416</ele>
        <time>2014-07-06T09:06:17Z</time>
      </trkpt>
      <trkpt lat="59.9673119" lon="17.7144436">
        <ele>32.3416</ele>
        <time>2014-07-06T09:06:18Z</time>
      </trkpt>
      <trkpt lat="59.9673306" lon="17.7145659">
        <ele>31.8607</ele>
        <time>2014-07-06T09:06:19Z</time>
      </trkpt>
      <trkpt lat="59.9673499" lon="17.7146922">
        <ele>31.8607</ele>
        <time>2014-07-06T09:06:20Z</time>
      </trkpt>
      <trkpt lat="59.967371" lon="17.7148206">
        <ele>31.3801</ele>
        <time>2014-07-06T09:06:21Z</time>
      </trkpt>
      <trkpt lat="59.9673906" lon="17.7149476">
        <ele>31.3801</ele>
        <time>2014-07-06T09:06:22Z</time>
      </trkpt>
      <trkpt lat="59.9674097" lon="17.7150709">
        <ele>30.8995</ele>
        <time>2014-07-06T09:06:23Z</time>
      </trkpt>
      <trkpt lat="59.9674284" lon="17.7151957">
        <ele>30.8995</ele>
        <time>2014-07-06T09:06:24Z</time>
      </trkpt>
      <trkpt lat="59.9674461" lon="17.7153226">
        <ele>30.4188</ele>
        <time>2014-07-06T09:06:25Z</time>
      </trkpt>
      <trkpt lat="59.9674636" lon="17.715441">
        <ele>30.4188</ele>
        <time>2014-07-06T09:06:26Z</time>
      </trkpt>
      <trkpt lat="59.9674816" lon="17.7155538">
        <ele>30.4188</ele>
        <time>2014-07-06T09:06:27Z</time>
      </trkpt>
      <trkpt lat="59.9675008" lon="17.7156621">
        <ele>30.4188</ele>
        <time>2014-07-06T09:06:28Z</time>
      </trkpt>
      <trkpt lat="59.9675226" lon="17.7157647">
        <ele>30.8995</ele>
        <time>2014-07-06T09:06:29Z</time>
      </trkpt>
      <trkpt lat="59.9675451" lon="17.7158605">
        <ele>30.8995</ele>
        <time>2014-07-06T09:06:30Z</time>
      </trkpt>
      <trkpt lat="59.9675689" lon="17.715952">
        <ele>31.3801</ele>
        <time>2014-07-06T09:06:31Z</time>
      </trkpt>
      <trkpt lat="59.967594" lon="17.7160383">
        <ele>31.3801</ele>
        <time>2014-07-06T09:06:32Z</time>
      </trkpt>
      <trkpt lat="59.9676215" lon="17.7161195">
        <ele>31.8607</ele>
        <time>2014-07-06T09:06:33Z</time>
      </trkpt>
      <trkpt lat="59.9676495" lon="17.7161991">
        <ele>31.8607</ele>
        <time>2014-07-06T09:06:34Z</time>
      </trkpt>
      <trkpt lat="59.9676771" lon="17.716278">
        <ele>32.3416</ele>
        <time>2014-07-06T09:06:35Z</time>
      </trkpt>
      <trkpt lat="59.9677042" lon="17.7163539">
        <ele>32.3416</ele>
        <time>2014-07-06T09:06:36Z</time>
      </trkpt>
      <trkpt lat="59.9677315" lon="17.7164273">
        <ele>32.8223</ele>
        <time>2014-07-06T09:06:37Z</time>
      </trkpt>
      <trkpt lat="59.96776" lon="17.7164976">
        <ele>33.3029</ele>
        <time>2014-07-06T09:06:38Z</time>
      </trkpt>
      <trkpt lat="59.9677894" lon="17.7165634">
        <ele>33.3029</ele>
        <time>2014-07-06T09:06:39Z</time>
      </trkpt>
      <trkpt lat="59.9678181" lon="17.716624">
        <ele>33.3029</ele>
        <time>2014-07-06T09:06:40Z</time>
      </trkpt>
      <trkpt lat="59.9678491" lon="17.716681">
        <ele>33.7834</ele>
        <time>2014-07-06T09:06:41Z</time>
      </trkpt>
      <trkpt lat="59.9678811" lon="17.716735">
        <ele>34.2642</ele>
        <time>2014-07-06T09:06:42Z</time>
      </trkpt>
      <trkpt lat="59.9679122" lon="17.7167884">
        <ele>34.2642</ele>
        <time>2014-07-06T09:06:43Z</time>
      </trkpt>
      <trkpt lat="59.9679434" lon="17.71684">
        <ele>34.7449</ele>
        <time>2014-07-06T09:06:44Z</time>
      </trkpt>
      <trkpt lat="59.9679753" lon="17.7168881">
        <ele>34.7449</ele>
        <time>2014-07-06T09:06:45Z</time>
      </trkpt>
      <trkpt lat="59.9680081" lon="17.7169332">
        <ele>35.2255</ele>
        <time>2014-07-06T09:06:46Z</time>
      </trkpt>
      <trkpt lat="59.9680421" lon="17.7169788">
        <ele>35.7061</ele>
        <time>2014-07-06T09:06:47Z</time>
      </trkpt>
      <trkpt lat="59.9680775" lon="17.7170243">
        <ele>36.1868</ele>
        <time>2014-07-06T09:06:48Z</time>
      </trkpt>
      <trkpt lat="59.9681131" lon="17.7170675">
        <ele>36.1868</ele>
        <time>2014-07-06T09:06:49Z</time>
      </trkpt>
      <trkpt lat="59.9681488" lon="17.7171106">
        <ele>36.6675</ele>
        <time>2014-07-06T09:06:50Z</time>
      </trkpt>
      <trkpt lat="59.9681848" lon="17.7171512">
        <ele>36.6675</ele>
        <time>2014-07-06T09:06:51Z</time>
      </trkpt>
      <trkpt lat="59.9682234" lon="17.7171877">
        <ele>36.6675</ele>
        <time>2014-07-06T09:06:52Z</time>
      </trkpt>
      <trkpt lat="59.9682607" lon="17.7172197">
        <ele>36.6675</ele>
        <time>2014-07-06T09:06:53Z</time>
      </trkpt>
      <trkpt lat="59.9682992" lon="17.7172476">
        <ele>36.6675</ele>
        <time>2014-07-06T09:06:54Z</time>
      </trkpt>
      <trkpt lat="59.9683374" lon="17.7172752">
        <ele>36.1868</ele>
        <time>2014-07-06T09:06:55Z</time>
      </trkpt>
      <trkpt lat="59.9683773" lon="17.7173025">
        <ele>35.7061</ele>
        <time>2014-07-06T09:06:56Z</time>
      </trkpt>
      <trkpt lat="59.9684189" lon="17.7173301">
        <ele>35.7061</ele>
        <time>2014-07-06T09:06:57Z</time>
      </trkpt>
      <trkpt lat="59.9684615" lon="17.7173573">
        <ele>35.2255</ele>
        <time>2014-07-06T09:06:58Z</time>
      </trkpt>
      <trkpt lat="59.9685054" lon="17.7173803">
        <ele>35.2255</ele>
        <time>2014-07-06T09:06:59Z</time>
      </trkpt>
      <trkpt lat="59.9685492" lon="17.7173988">
        <ele>35.2255</ele>
        <time>2014-07-06T09:07:00Z</time>
      </trkpt>
      <trkpt lat="59.9685914" lon="17.7174159">
        <ele>34.7449</ele>
        <time>2014-07-06T09:07:01Z</time>
      </trkpt>
      <trkpt lat="59.9686313" lon="17.7174311">
        <ele>34.2642</ele>
        <time>2014-07-06T09:07:02Z</time>
      </trkpt>
      <trkpt lat="59.9686707" lon="17.717448">
        <ele>34.2642</ele>
        <time>2014-07-06T09:07:03Z</time>
      </trkpt>
      <trkpt lat="59.9687112" lon="17.7174673">
        <ele>34.2642</ele>
        <time>2014-07-06T09:07:04Z</time>
      </trkpt>
      <trkpt lat="59.9687535" lon="17.7174839">
        <ele>34.2642</ele>
        <time>2014-07-06T09:07:05Z</time>
      </trkpt>
      <trkpt lat="59.9687959" lon="17.717493">
        <ele>34.2642</ele>
        <time>2014-07-06T09:07:06Z</time>
      </trkpt>
      <trkpt lat="59.9688365" lon="17.7174932">
        <ele>34.2642</ele>
        <time>2014-07-06T09:07:07Z</time>
      </trkpt>
      <trkpt lat="59.9688758" lon="17.7174838">
        <ele>34.2642</ele>
        <time>2014-07-06T09:07:08Z</time>
      </trkpt>
      <trkpt lat="59.9689136" lon="17.7174667">
        <ele>34.7449</ele>
        <time>2014-07-06T09:07:09Z</time>
      </trkpt>
      <trkpt lat="59.9689503" lon="17.7174461">
        <ele>34.7449</ele>
        <time>2014-07-06T09:07:10Z</time>
      </trkpt>
      <trkpt lat="59.9689892" lon="17.7174301">
        <ele>34.7449</ele>
        <time>2014-07-06T09:07:11Z</time>
      </trkpt>
      <trkpt lat="59.9690312" lon="17.7174288">
        <ele>34.7449</ele>
        <time>2014-07-06T09:07:12Z</time>
      </trkpt>
      <trkpt lat="59.9690748" lon="17.7174403">
        <ele>34.7449</ele>
        <time>2014-07-06T09:07:13Z</time>
      </trkpt>
      <trkpt lat="59.9691188" lon="17.7174563">
        <ele>34.2642</ele>
        <time>2014-07-06T09:07:14Z</time>
      </trkpt>
      <trkpt lat="59.9691632" lon="17.7174724">
        <ele>34.2642</ele>
        <time>2014-07-06T09:07:15Z</time>
      </trkpt>
      <trkpt lat="59.9692077" lon="17.7174882">
        <ele>34.2642</ele>
        <time>2014-07-06T09:07:16Z</time>
      </trkpt>
      <trkpt lat="59.9692528" lon="17.7175081">
        <ele>34.2642</ele>
        <time>2014-07-06T09:07:17Z</time>
      </trkpt>
      <trkpt lat="59.9692995" lon="17.717531">
        <ele>34.2642</ele>
        <time>2014-07-06T09:07:18Z</time>
      </trkpt>
      <trkpt lat="59.9693471" lon="17.7175539">
        <ele>34.2642</ele>
        <time>2014-07-06T09:07:19Z</time>
      </trkpt>
      <trkpt lat="59.9693952" lon="17.7175772">
        <ele>33.7834</ele>
        <time>2014-07-06T09:07:20Z</time>
      </trkpt>
      <trkpt lat="59.9694435" lon="17.7176035">
        <ele>33.7834</ele>
        <time>2014-07-06T09:07:21Z</time>
      </trkpt>
      <trkpt lat="59.9694926" lon="17.7176321">
        <ele>33.7834</ele>
        <time>2014-07-06T09:07:22Z</time>
      </trkpt>
      <trkpt lat="59.969543" lon="17.7176628">
        <ele>33.7834</ele>
        <time>2014-07-06T09:07:23Z</time>
      </trkpt>
      <trkpt lat="59.9695941" lon="17.7176963">
        <ele>33.3029</ele>
        <time>2014-07-06T09:07:24Z</time>
      </trkpt>
      <trkpt lat="59.9696445" lon="17.7177324">
        <ele>33.3029</ele>
        <time>2014-07-06T09:07:25Z</time>
      </trkpt>
      <trkpt lat="59.9696944" lon="17.7177694">
        <ele>33.3029</ele>
        <time>2014-07-06T09:07:26Z</time>
      </trkpt>
      <trkpt lat="59.9697441" lon="17.7178061">
        <ele>33.3029</ele>
        <time>2014-07-06T09:07:27Z</time>
      </trkpt>
      <trkpt lat="59.9697937" lon="17.717845">
        <ele>33.3029</ele>
        <time>2014-07-06T09:07:28Z</time>
      </trkpt>
      <trkpt lat="59.969844" lon="17.7178857">
        <ele>33.3029</ele>
        <time>2014-07-06T09:07:29Z</time>
      </trkpt>
      <trkpt lat="59.9698942" lon="17.7179275">
        <ele>32.8223</ele>
        <time>2014-07-06T09:07:30Z</time>
      </trkpt>
      <trkpt lat="59.9699445" lon="17.7179707">
        <ele>32.8223</ele>
        <time>2014-07-06T09:07:31Z</time>
      </trkpt>
      <trkpt lat="59.9699943" lon="17.718015">
        <ele>32.8223</ele>
        <time>2014-07-06T09:07:32Z</time>
      </trkpt>
      <trkpt lat="59.9700434" lon="17.7180604">
        <ele>32.8223</ele>
        <time>2014-07-06T09:07:33Z</time>
      </trkpt>
      <trkpt lat="59.9700922" lon="17.7181045">
        <ele>32.8223</ele>
        <time>2014-07-06T09:07:34Z</time>
      </trkpt>
      <trkpt lat="59.9701403" lon="17.7181496">
        <ele>32.8223</ele>
        <time>2014-07-06T09:07:35Z</time>
      </trkpt>
      <trkpt lat="59.9701893" lon="17.7181942">
        <ele>32.8223</ele>
        <time>2014-07-06T09:07:36Z</time>
      </trkpt>
      <trkpt lat="59.970239" lon="17.7182391">
        <ele>32.8223</ele>
        <time>2014-07-06T09:07:37Z</time>
      </trkpt>
      <trkpt lat="59.9702888" lon="17.7182837">
        <ele>32.8223</ele>
        <time>2014-07-06T09:07:38Z</time>
      </trkpt>
      <trkpt lat="59.9703372" lon="17.7183268">
        <ele>32.8223</ele>
        <time>2014-07-06T09:07:39Z</time>
      </trkpt>
      <trkpt lat="59.9703843" lon="17.7183701">
        <ele>32.8223</ele>
        <time>2014-07-06T09:07:40Z</time>
      </trkpt>
      <trkpt lat="59.9704309" lon="17.7184133">
        <ele>32.8223</ele>
        <time>2014-07-06T09:07:41Z</time>
      </trkpt>
      <trkpt lat="59.9704796" lon="17.7184567">
        <ele>32.8223</ele>
        <time>2014-07-06T09:07:42Z</time>
      </trkpt>
      <trkpt lat="59.9705289" lon="17.7185003">
        <ele>32.8223</ele>
        <time>2014-07-06T09:07:43Z</time>
      </trkpt>
      <trkpt lat="59.970578" lon="17.7185453">
        <ele>32.8223</ele>
        <time>2014-07-06T09:07:44Z</time>
      </trkpt>
      <trkpt lat="59.9706261" lon="17.7185894">
        <ele>32.8223</ele>
        <time>2014-07-06T09:07:45Z</time>
      </trkpt>
      <trkpt lat="59.9706747" lon="17.7186312">
        <ele>32.8223</ele>
        <time>2014-07-06T09:07:46Z</time>
      </trkpt>
      <trkpt lat="59.9707241" lon="17.7186732">
        <ele>32.8223</ele>
        <time>2014-07-06T09:07:47Z</time>
      </trkpt>
      <trkpt lat="59.9707736" lon="17.7187173">
        <ele>32.8223</ele>
        <time>2014-07-06T09:07:48Z</time>
      </trkpt>
      <trkpt lat="59.9708219" lon="17.7187624">
        <ele>32.8223</ele>
        <time>2014-07-06T09:07:49Z</time>
      </trkpt>
      <trkpt lat="59.9708696" lon="17.7188074">
        <ele>32.3416</ele>
        <time>2014-07-06T09:07:50Z</time>
      </trkpt>
      <trkpt lat="59.9709178" lon="17.7188514">
        <ele>32.3416</ele>
        <time>2014-07-06T09:07:51Z</time>
      </trkpt>
      <trkpt lat="59.9709673" lon="17.7188965">
        <ele>32.3416</ele>
        <time>2014-07-06T09:07:52Z</time>
      </trkpt>
      <trkpt lat="59.9710173" lon="17.7189409">
        <ele>32.3416</ele>
        <time>2014-07-06T09:07:53Z</time>
      </trkpt>
      <trkpt lat="59.9710668" lon="17.7189842">
        <ele>32.3416</ele>
        <time>2014-07-06T09:07:54Z</time>
      </trkpt>
      <trkpt lat="59.9711153" lon="17.7190281">
        <ele>31.8607</ele>
        <time>2014-07-06T09:07:55Z</time>
      </trkpt>
      <trkpt lat="59.9711643" lon="17.7190727">
        <ele>31.8607</ele>
        <time>2014-07-06T09:07:56Z</time>
      </trkpt>
      <trkpt lat="59.9712144" lon="17.7191175">
        <ele>31.8607</ele>
        <time>2014-07-06T09:07:57Z</time>
      </trkpt>
      <trkpt lat="59.9712645" lon="17.7191624">
        <ele>31.8607</ele>
        <time>2014-07-06T09:07:58Z</time>
      </trkpt>
      <trkpt lat="59.971314" lon="17.7192067">
        <ele>31.8607</ele>
        <time>2014-07-06T09:07:59Z</time>
      </trkpt>
      <trkpt lat="59.9713628" lon="17.7192509">
        <ele>31.8607</ele>
        <time>2014-07-06T09:08:00Z</time>
      </trkpt>
      <trkpt lat="59.9714115" lon="17.7192958">
        <ele>31.8607</ele>
        <time>2014-07-06T09:08:01Z</time>
      </trkpt>
      <trkpt lat="59.9714618" lon="17.7193406">
        <ele>31.8607</ele>
        <time>2014-07-06T09:08:02Z</time>
      </trkpt>
      <trkpt lat="59.9715125" lon="17.7193861">
        <ele>31.8607</ele>
        <time>2014-07-06T09:08:03Z</time>
      </trkpt>
      <trkpt lat="59.9715627" lon="17.7194314">
        <ele>31.8607</ele>
        <time>2014-07-06T09:08:04Z</time>
      </trkpt>
      <trkpt lat="59.9716128" lon="17.7194758">
        <ele>31.8607</ele>
        <time>2014-07-06T09:08:05Z</time>
      </trkpt>
      <trkpt lat="59.9716627" lon="17.7195209">
        <ele>31.8607</ele>
        <time>2014-07-06T09:08:06Z</time>
      </trkpt>
      <trkpt lat="59.9717129" lon="17.7195667">
        <ele>31.8607</ele>
        <time>2014-07-06T09:08:07Z</time>
      </trkpt>
      <trkpt lat="59.9717642" lon="17.7196136">
        <ele>31.8607</ele>
        <time>2014-07-06T09:08:08Z</time>
      </trkpt>
      <trkpt lat="59.971815" lon="17.7196618">
        <ele>31.8607</ele>
        <time>2014-07-06T09:08:09Z</time>
      </trkpt>
      <trkpt lat="59.971865" lon="17.7197091">
        <ele>31.8607</ele>
        <time>2014-07-06T09:08:10Z</time>
      </trkpt>
      <trkpt lat="59.9719142" lon="17.7197544">
        <ele>31.8607</ele>
        <time>2014-07-06T09:08:11Z</time>
      </trkpt>
      <trkpt lat="59.9719636" lon="17.7197974">
        <ele>31.8607</ele>
        <time>2014-07-06T09:08:12Z</time>
      </trkpt>
      <trkpt lat="59.9720137" lon="17.7198409">
        <ele>31.8607</ele>
        <time>2014-07-06T09:08:13Z</time>
      </trkpt>
      <trkpt lat="59.9720645" lon="17.7198859">
        <ele>31.8607</ele>
        <time>2014-07-06T09:08:14Z</time>
      </trkpt>
      <trkpt lat="59.9721149" lon="17.7199309">
        <ele>31.8607</ele>
        <time>2014-07-06T09:08:15Z</time>
      </trkpt>
      <trkpt lat="59.9721645" lon="17.7199761">
        <ele>31.8607</ele>
        <time>2014-07-06T09:08:16Z</time>
      </trkpt>
      <trkpt lat="59.9722142" lon="17.7200204">
        <ele>31.8607</ele>
        <time>2014-07-06T09:08:17Z</time>
      </trkpt>
      <trkpt lat="59.972265" lon="17.7200665">
        <ele>31.8607</ele>
        <time>2014-07-06T09:08:18Z</time>
      </trkpt>
      <trkpt lat="59.9723165" lon="17.7201144">
        <ele>31.8607</ele>
        <time>2014-07-06T09:08:19Z</time>
      </trkpt>
      <trkpt lat="59.9723688" lon="17.720161">
        <ele>31.8607</ele>
        <time>2014-07-06T09:08:20Z</time>
      </trkpt>
      <trkpt lat="59.9724204" lon="17.7202075">
        <ele>31.8607</ele>
        <time>2014-07-06T09:08:21Z</time>
      </trkpt>
      <trkpt lat="59.9724708" lon="17.7202536">
        <ele>31.8607</ele>
        <time>2014-07-06T09:08:22Z</time>
      </trkpt>
      <trkpt lat="59.9725206" lon="17.7202983">
        <ele>31.8607</ele>
        <time>2014-07-06T09:08:23Z</time>
      </trkpt>
      <trkpt lat="59.97257" lon="17.7203444">
        <ele>31.8607</ele>
        <time>2014-07-06T09:08:24Z</time>
      </trkpt>
      <trkpt lat="59.97262" lon="17.720391">
        <ele>31.8607</ele>
        <time>2014-07-06T09:08:25Z</time>
      </trkpt>
      <trkpt lat="59.9726701" lon="17.7204388">
        <ele>31.8607</ele>
        <time>2014-07-06T09:08:26Z</time>
      </trkpt>
      <trkpt lat="59.9727193" lon="17.7204879">
        <ele>31.8607</ele>
        <time>2014-07-06T09:08:27Z</time>
      </trkpt>
      <trkpt lat="59.9727669" lon="17.7205376">
        <ele>31.8607</ele>
        <time>2014-07-06T09:08:28Z</time>
      </trkpt>
      <trkpt lat="59.9728137" lon="17.720589">
        <ele>31.8607</ele>
        <time>2014-07-06T09:08:29Z</time>
      </trkpt>
      <trkpt lat="59.9728603" lon="17.7206436">
        <ele>31.8607</ele>
        <time>2014-07-06T09:08:30Z</time>
      </trkpt>
      <trkpt lat="59.9729069" lon="17.7207013">
        <ele>31.8607</ele>
        <time>2014-07-06T09:08:31Z</time>
      </trkpt>
      <trkpt lat="59.9729532" lon="17.7207588">
        <ele>31.8607</ele>
        <time>2014-07-06T09:08:32Z</time>
      </trkpt>
      <trkpt lat="59.9729981" lon="17.7208168">
        <ele>31.8607</ele>
        <time>2014-07-06T09:08:33Z</time>
      </trkpt>
      <trkpt lat="59.9730425" lon="17.7208774">
        <ele>31.3801</ele>
        <time>2014-07-06T09:08:34Z</time>
      </trkpt>
      <trkpt lat="59.9730872" lon="17.7209415">
        <ele>31.3801</ele>
        <time>2014-07-06T09:08:35Z</time>
      </trkpt>
      <trkpt lat="59.9731316" lon="17.7210074">
        <ele>31.3801</ele>
        <time>2014-07-06T09:08:36Z</time>
      </trkpt>
      <trkpt lat="59.9731748" lon="17.7210726">
        <ele>31.3801</ele>
        <time>2014-07-06T09:08:37Z</time>
      </trkpt>
      <trkpt lat="59.9732162" lon="17.7211393">
        <ele>31.8607</ele>
        <time>2014-07-06T09:08:38Z</time>
      </trkpt>
      <trkpt lat="59.9732561" lon="17.721208">
        <ele>31.8607</ele>
        <time>2014-07-06T09:08:39Z</time>
      </trkpt>
      <trkpt lat="59.9732956" lon="17.7212794">
        <ele>31.8607</ele>
        <time>2014-07-06T09:08:40Z</time>
      </trkpt>
      <trkpt lat="59.9733349" lon="17.7213529">
        <ele>31.3801</ele>
        <time>2014-07-06T09:08:41Z</time>
      </trkpt>
      <trkpt lat="59.9733737" lon="17.7214275">
        <ele>31.3801</ele>
        <time>2014-07-06T09:08:42Z</time>
      </trkpt>
      <trkpt lat="59.9734109" lon="17.7215026">
        <ele>31.3801</ele>
        <time>2014-07-06T09:08:43Z</time>
      </trkpt>
      <trkpt lat="59.9734467" lon="17.721577">
        <ele>31.3801</ele>
        <time>2014-07-06T09:08:44Z</time>
      </trkpt>
      <trkpt lat="59.973481" lon="17.7216514">
        <ele>31.3801</ele>
        <time>2014-07-06T09:08:45Z</time>
      </trkpt>
      <trkpt lat="59.973514" lon="17.7217281">
        <ele>31.3801</ele>
        <time>2014-07-06T09:08:46Z</time>
      </trkpt>
      <trkpt lat="59.9735467" lon="17.7218066">
        <ele>30.8995</ele>
        <time>2014-07-06T09:08:47Z</time>
      </trkpt>
      <trkpt lat="59.9735799" lon="17.7218876">
        <ele>30.8995</ele>
        <time>2014-07-06T09:08:48Z</time>
      </trkpt>
      <trkpt lat="59.9736131" lon="17.7219721">
        <ele>30.8995</ele>
        <time>2014-07-06T09:08:49Z</time>
      </trkpt>
      <trkpt lat="59.9736465" lon="17.7220572">
        <ele>30.8995</ele>
        <time>2014-07-06T09:08:50Z</time>
      </trkpt>
      <trkpt lat="59.9736783" lon="17.7221414">
        <ele>30.8995</ele>
        <time>2014-07-06T09:08:51Z</time>
      </trkpt>
      <trkpt lat="59.9737086" lon="17.7222262">
        <ele>30.8995</ele>
        <time>2014-07-06T09:08:52Z</time>
      </trkpt>
      <trkpt lat="59.9737376" lon="17.7223138">
        <ele>30.8995</ele>
        <time>2014-07-06T09:08:53Z</time>
      </trkpt>
      <trkpt lat="59.9737653" lon="17.7224056">
        <ele>30.8995</ele>
        <time>2014-07-06T09:08:54Z</time>
      </trkpt>
      <trkpt lat="59.9737922" lon="17.7224996">
        <ele>30.8995</ele>
        <time>2014-07-06T09:08:55Z</time>
      </trkpt>
      <trkpt lat="59.9738175" lon="17.7225931">
        <ele>30.4188</ele>
        <time>2014-07-06T09:08:56Z</time>
      </trkpt>
      <trkpt lat="59.9738415" lon="17.7226847">
        <ele>30.4188</ele>
        <time>2014-07-06T09:08:57Z</time>
      </trkpt>
      <trkpt lat="59.9738645" lon="17.7227738">
        <ele>30.4188</ele>
        <time>2014-07-06T09:08:58Z</time>
      </trkpt>
      <trkpt lat="59.9738868" lon="17.7228608">
        <ele>30.4188</ele>
        <time>2014-07-06T09:08:59Z</time>
      </trkpt>
      <trkpt lat="59.9739073" lon="17.7229483">
        <ele>30.4188</ele>
        <time>2014-07-06T09:09:00Z</time>
      </trkpt>
      <trkpt lat="59.9739269" lon="17.723038">
        <ele>30.4188</ele>
        <time>2014-07-06T09:09:01Z</time>
      </trkpt>
      <trkpt lat="59.9739462" lon="17.7231302">
        <ele>29.9381</ele>
        <time>2014-07-06T09:09:02Z</time>
      </trkpt>
      <trkpt lat="59.9739656" lon="17.7232245">
        <ele>29.9381</ele>
        <time>2014-07-06T09:09:03Z</time>
      </trkpt>
      <trkpt lat="59.973984" lon="17.7233184">
        <ele>29.9381</ele>
        <time>2014-07-06T09:09:04Z</time>
      </trkpt>
      <trkpt lat="59.9740003" lon="17.7234113">
        <ele>29.9381</ele>
        <time>2014-07-06T09:09:05Z</time>
      </trkpt>
      <trkpt lat="59.9740154" lon="17.7235037">
        <ele>29.9381</ele>
        <time>2014-07-06T09:09:06Z</time>
      </trkpt>
      <trkpt lat="59.9740305" lon="17.723596">
        <ele>29.9381</ele>
        <time>2014-07-06T09:09:07Z</time>
      </trkpt>
      <trkpt lat="59.9740456" lon="17.7236893">
        <ele>29.9381</ele>
        <time>2014-07-06T09:09:08Z</time>
      </trkpt>
      <trkpt lat="59.9740609" lon="17.7237844">
        <ele>29.9381</ele>
        <time>2014-07-06T09:09:09Z</time>
      </trkpt>
      <trkpt lat="59.9740761" lon="17.7238799">
        <ele>30.4188</ele>
        <time>2014-07-06T09:09:10Z</time>
      </trkpt>
      <trkpt lat="59.9740897" lon="17.723974">
        <ele>29.9381</ele>
        <time>2014-07-06T09:09:11Z</time>
      </trkpt>
      <trkpt lat="59.9741024" lon="17.7240676">
        <ele>29.9381</ele>
        <time>2014-07-06T09:09:12Z</time>
      </trkpt>
      <trkpt lat="59.9741155" lon="17.7241615">
        <ele>30.4188</ele>
        <time>2014-07-06T09:09:13Z</time>
      </trkpt>
      <trkpt lat="59.9741296" lon="17.7242557">
        <ele>30.4188</ele>
        <time>2014-07-06T09:09:14Z</time>
      </trkpt>
      <trkpt lat="59.9741434" lon="17.7243515">
        <ele>30.4188</ele>
        <time>2014-07-06T09:09:15Z</time>
      </trkpt>
      <trkpt lat="59.9741572" lon="17.7244486">
        <ele>30.4188</ele>
        <time>2014-07-06T09:09:16Z</time>
      </trkpt>
      <trkpt lat="59.9741709" lon="17.7245456">
        <ele>30.4188</ele>
        <time>2014-07-06T09:09:17Z</time>
      </trkpt>
      <trkpt lat="59.9741849" lon="17.7246408">
        <ele>30.4188</ele>
        <time>2014-07-06T09:09:18Z</time>
      </trkpt>
      <trkpt lat="59.9741987" lon="17.7247334">
        <ele>30.4188</ele>
        <time>2014-07-06T09:09:19Z</time>
      </trkpt>
      <trkpt lat="59.9742112" lon="17.7248261">
        <ele>30.4188</ele>
        <time>2014-07-06T09:09:20Z</time>
      </trkpt>
      <trkpt lat="59.974224" lon="17.7249196">
        <ele>30.4188</ele>
        <time>2014-07-06T09:09:21Z</time>
      </trkpt>
      <trkpt lat="59.9742377" lon="17.7250136">
        <ele>30.4188</ele>
        <time>2014-07-06T09:09:22Z</time>
      </trkpt>
      <trkpt lat="59.974251" lon="17.7251086">
        <ele>30.4188</ele>
        <time>2014-07-06T09:09:23Z</time>
      </trkpt>
      <trkpt lat="59.9742632" lon="17.7252038">
        <ele>30.4188</ele>
        <time>2014-07-06T09:09:24Z</time>
      </trkpt>
      <trkpt lat="59.974274" lon="17.7252971">
        <ele>30.4188</ele>
        <time>2014-07-06T09:09:25Z</time>
      </trkpt>
      <trkpt lat="59.9742841" lon="17.7253876">
        <ele>30.4188</ele>
        <time>2014-07-06T09:09:26Z</time>
      </trkpt>
      <trkpt lat="59.9742942" lon="17.7254775">
        <ele>30.4188</ele>
        <time>2014-07-06T09:09:27Z</time>
      </trkpt>
      <trkpt lat="59.9743029" lon="17.7255699">
        <ele>30.4188</ele>
        <time>2014-07-06T09:09:28Z</time>
      </trkpt>
      <trkpt lat="59.9743111" lon="17.7256628">
        <ele>30.4188</ele>
        <time>2014-07-06T09:09:29Z</time>
      </trkpt>
      <trkpt lat="59.974319" lon="17.7257563">
        <ele>30.8995</ele>
        <time>2014-07-06T09:09:30Z</time>
      </trkpt>
      <trkpt lat="59.9743251" lon="17.7258489">
        <ele>30.8995</ele>
        <time>2014-07-06T09:09:31Z</time>
      </trkpt>
      <trkpt lat="59.9743306" lon="17.7259403">
        <ele>30.8995</ele>
        <time>2014-07-06T09:09:32Z</time>
      </trkpt>
      <trkpt lat="59.9743365" lon="17.7260326">
        <ele>30.8995</ele>
        <time>2014-07-06T09:09:33Z</time>
      </trkpt>
      <trkpt lat="59.9743413" lon="17.7261267">
        <ele>30.8995</ele>
        <time>2014-07-06T09:09:34Z</time>
      </trkpt>
      <trkpt lat="59.9743458" lon="17.726222">
        <ele>30.8995</ele>
        <time>2014-07-06T09:09:35Z</time>
      </trkpt>
      <trkpt lat="59.9743506" lon="17.726317">
        <ele>30.8995</ele>
        <time>2014-07-06T09:09:36Z</time>
      </trkpt>
      <trkpt lat="59.9743541" lon="17.7264107">
        <ele>30.8995</ele>
        <time>2014-07-06T09:09:37Z</time>
      </trkpt>
      <trkpt lat="59.9743569" lon="17.7265044">
        <ele>30.8995</ele>
        <time>2014-07-06T09:09:38Z</time>
      </trkpt>
      <trkpt lat="59.9743599" lon="17.7265994">
        <ele>30.8995</ele>
        <time>2014-07-06T09:09:39Z</time>
      </trkpt>
      <trkpt lat="59.9743631" lon="17.7266952">
        <ele>30.8995</ele>
        <time>2014-07-06T09:09:40Z</time>
      </trkpt>
      <trkpt lat="59.9743658" lon="17.7267905">
        <ele>31.3801</ele>
        <time>2014-07-06T09:09:41Z</time>
      </trkpt>
      <trkpt lat="59.9743683" lon="17.7268866">
        <ele>31.3801</ele>
        <time>2014-07-06T09:09:42Z</time>
      </trkpt>
      <trkpt lat="59.9743702" lon="17.7269826">
        <ele>31.3801</ele>
        <time>2014-07-06T09:09:43Z</time>
      </trkpt>
      <trkpt lat="59.9743722" lon="17.7270783">
        <ele>31.3801</ele>
        <time>2014-07-06T09:09:44Z</time>
      </trkpt>
      <trkpt lat="59.974375" lon="17.7271754">
        <ele>30.8995</ele>
        <time>2014-07-06T09:09:45Z</time>
      </trkpt>
      <trkpt lat="59.9743772" lon="17.7272775">
        <ele>30.8995</ele>
        <time>2014-07-06T09:09:46Z</time>
      </trkpt>
      <trkpt lat="59.9743797" lon="17.7273826">
        <ele>30.8995</ele>
        <time>2014-07-06T09:09:47Z</time>
      </trkpt>
      <trkpt lat="59.974382" lon="17.7274887">
        <ele>30.8995</ele>
        <time>2014-07-06T09:09:48Z</time>
      </trkpt>
      <trkpt lat="59.9743839" lon="17.727595">
        <ele>30.8995</ele>
        <time>2014-07-06T09:09:49Z</time>
      </trkpt>
      <trkpt lat="59.9743859" lon="17.7277012">
        <ele>30.4188</ele>
        <time>2014-07-06T09:09:50Z</time>
      </trkpt>
      <trkpt lat="59.9743875" lon="17.7278078">
        <ele>30.4188</ele>
        <time>2014-07-06T09:09:51Z</time>
      </trkpt>
      <trkpt lat="59.974389" lon="17.7279141">
        <ele>30.4188</ele>
        <time>2014-07-06T09:09:52Z</time>
      </trkpt>
      <trkpt lat="59.9743908" lon="17.7280197">
        <ele>30.4188</ele>
        <time>2014-07-06T09:09:53Z</time>
      </trkpt>
      <trkpt lat="59.9743926" lon="17.7281244">
        <ele>30.4188</ele>
        <time>2014-07-06T09:09:54Z</time>
      </trkpt>
      <trkpt lat="59.9743946" lon="17.7282291">
        <ele>30.4188</ele>
        <time>2014-07-06T09:09:55Z</time>
      </trkpt>
      <trkpt lat="59.9743974" lon="17.728334">
        <ele>30.4188</ele>
        <time>2014-07-06T09:09:56Z</time>
      </trkpt>
      <trkpt lat="59.974401" lon="17.7284374">
        <ele>30.4188</ele>
        <time>2014-07-06T09:09:57Z</time>
      </trkpt>
      <trkpt lat="59.9744031" lon="17.7285393">
        <ele>30.4188</ele>
        <time>2014-07-06T09:09:58Z</time>
      </trkpt>
      <trkpt lat="59.9744061" lon="17.7286394">
        <ele>30.4188</ele>
        <time>2014-07-06T09:09:59Z</time>
      </trkpt>
      <trkpt lat="59.9744102" lon="17.7287388">
        <ele>30.4188</ele>
        <time>2014-07-06T09:10:00Z</time>
      </trkpt>
      <trkpt lat="59.9744136" lon="17.7288391">
        <ele>30.4188</ele>
        <time>2014-07-06T09:10:01Z</time>
      </trkpt>
      <trkpt lat="59.9744164" lon="17.7289401">
        <ele>30.4188</ele>
        <time>2014-07-06T09:10:02Z</time>
      </trkpt>
      <trkpt lat="59.9744196" lon="17.7290426">
        <ele>30.4188</ele>
        <time>2014-07-06T09:10:03Z</time>
      </trkpt>
      <trkpt lat="59.9744224" lon="17.7291448">
        <ele>30.4188</ele>
        <time>2014-07-06T09:10:04Z</time>
      </trkpt>
      <trkpt lat="59.9744248" lon="17.7292451">
        <ele>30.4188</ele>
        <time>2014-07-06T09:10:05Z</time>
      </trkpt>
      <trkpt lat="59.9744268" lon="17.7293447">
        <ele>30.4188</ele>
        <time>2014-07-06T09:10:06Z</time>
      </trkpt>
      <trkpt lat="59.9744274" lon="17.7294436">
        <ele>30.4188</ele>
        <time>2014-07-06T09:10:07Z</time>
      </trkpt>
      <trkpt lat="59.9744257" lon="17.7295395">
        <ele>30.4188</ele>
        <time>2014-07-06T09:10:08Z</time>
      </trkpt>
      <trkpt lat="59.9744216" lon="17.7296336">
        <ele>30.4188</ele>
        <time>2014-07-06T09:10:09Z</time>
      </trkpt>
      <trkpt lat="59.9744176" lon="17.7297282">
        <ele>30.4188</ele>
        <time>2014-07-06T09:10:10Z</time>
      </trkpt>
      <trkpt lat="59.9744127" lon="17.729824">
        <ele>30.4188</ele>
        <time>2014-07-06T09:10:11Z</time>
      </trkpt>
      <trkpt lat="59.974405" lon="17.7299204">
        <ele>30.4188</ele>
        <time>2014-07-06T09:10:12Z</time>
      </trkpt>
      <trkpt lat="59.9743973" lon="17.7300176">
        <ele>30.8995</ele>
        <time>2014-07-06T09:10:13Z</time>
      </trkpt>
      <trkpt lat="59.9743896" lon="17.7301168">
        <ele>30.8995</ele>
        <time>2014-07-06T09:10:14Z</time>
      </trkpt>
      <trkpt lat="59.9743813" lon="17.7302178">
        <ele>30.8995</ele>
        <time>2014-07-06T09:10:15Z</time>
      </trkpt>
      <trkpt lat="59.974373" lon="17.730319">
        <ele>30.8995</ele>
        <time>2014-07-06T09:10:16Z</time>
      </trkpt>
      <trkpt lat="59.9743646" lon="17.7304175">
        <ele>30.8995</ele>
        <time>2014-07-06T09:10:17Z</time>
      </trkpt>
      <trkpt lat="59.9743572" lon="17.7305135">
        <ele>30.8995</ele>
        <time>2014-07-06T09:10:18Z</time>
      </trkpt>
      <trkpt lat="59.9743497" lon="17.7306083">
        <ele>30.8995</ele>
        <time>2014-07-06T09:10:19Z</time>
      </trkpt>
      <trkpt lat="59.9743422" lon="17.7307044">
        <ele>30.8995</ele>
        <time>2014-07-06T09:10:20Z</time>
      </trkpt>
      <trkpt lat="59.9743352" lon="17.7308035">
        <ele>30.8995</ele>
        <time>2014-07-06T09:10:21Z</time>
      </trkpt>
      <trkpt lat="59.974328" lon="17.7309051">
        <ele>31.3801</ele>
        <time>2014-07-06T09:10:22Z</time>
      </trkpt>
      <trkpt lat="59.9743214" lon="17.7310077">
        <ele>31.3801</ele>
        <time>2014-07-06T09:10:23Z</time>
      </trkpt>
      <trkpt lat="59.974316" lon="17.7311089">
        <ele>31.3801</ele>
        <time>2014-07-06T09:10:24Z</time>
      </trkpt>
      <trkpt lat="59.9743112" lon="17.7312081">
        <ele>31.3801</ele>
        <time>2014-07-06T09:10:25Z</time>
      </trkpt>
      <trkpt lat="59.9743065" lon="17.7313084">
        <ele>31.3801</ele>
        <time>2014-07-06T09:10:26Z</time>
      </trkpt>
      <trkpt lat="59.9743026" lon="17.7314102">
        <ele>31.3801</ele>
        <time>2014-07-06T09:10:27Z</time>
      </trkpt>
      <trkpt lat="59.9743002" lon="17.7315131">
        <ele>31.3801</ele>
        <time>2014-07-06T09:10:28Z</time>
      </trkpt>
      <trkpt lat="59.9742988" lon="17.7316173">
        <ele>31.3801</ele>
        <time>2014-07-06T09:10:29Z</time>
      </trkpt>
      <trkpt lat="59.9742983" lon="17.7317199">
        <ele>31.3801</ele>
        <time>2014-07-06T09:10:30Z</time>
      </trkpt>
      <trkpt lat="59.974299" lon="17.7318193">
        <ele>31.3801</ele>
        <time>2014-07-06T09:10:31Z</time>
      </trkpt>
      <trkpt lat="59.9742997" lon="17.7319171">
        <ele>31.3801</ele>
        <time>2014-07-06T09:10:32Z</time>
      </trkpt>
      <trkpt lat="59.974301" lon="17.7320158">
        <ele>31.3801</ele>
        <time>2014-07-06T09:10:33Z</time>
      </trkpt>
      <trkpt lat="59.974304" lon="17.7321151">
        <ele>31.3801</ele>
        <time>2014-07-06T09:10:34Z</time>
      </trkpt>
      <trkpt lat="59.9743069" lon="17.7322123">
        <ele>31.3801</ele>
        <time>2014-07-06T09:10:35Z</time>
      </trkpt>
      <trkpt lat="59.9743098" lon="17.7323073">
        <ele>31.3801</ele>
        <time>2014-07-06T09:10:36Z</time>
      </trkpt>
      <trkpt lat="59.9743127" lon="17.7324011">
        <ele>31.3801</ele>
        <time>2014-07-06T09:10:37Z</time>
      </trkpt>
      <trkpt lat="59.9743142" lon="17.7324975">
        <ele>31.3801</ele>
        <time>2014-07-06T09:10:38Z</time>
      </trkpt>
      <trkpt lat="59.9743154" lon="17.7325994">
        <ele>31.8607</ele>
        <time>2014-07-06T09:10:39Z</time>
      </trkpt>
      <trkpt lat="59.9743166" lon="17.7327015">
        <ele>31.8607</ele>
        <time>2014-07-06T09:10:40Z</time>
      </trkpt>
      <trkpt lat="59.9743176" lon="17.7328037">
        <ele>31.8607</ele>
        <time>2014-07-06T09:10:41Z</time>
      </trkpt>
      <trkpt lat="59.9743179" lon="17.7329046">
        <ele>31.8607</ele>
        <time>2014-07-06T09:10:42Z</time>
      </trkpt>
      <trkpt lat="59.9743165" lon="17.7330035">
        <ele>31.8607</ele>
        <time>2014-07-06T09:10:43Z</time>
      </trkpt>
      <trkpt lat="59.9743149" lon="17.7331017">
        <ele>31.8607</ele>
        <time>2014-07-06T09:10:44Z</time>
      </trkpt>
      <trkpt lat="59.9743127" lon="17.7331993">
        <ele>31.8607</ele>
        <time>2014-07-06T09:10:45Z</time>
      </trkpt>
      <trkpt lat="59.974309" lon="17.7332997">
        <ele>31.8607</ele>
        <time>2014-07-06T09:10:46Z</time>
      </trkpt>
      <trkpt lat="59.9743059" lon="17.7334007">
        <ele>31.8607</ele>
        <time>2014-07-06T09:10:47Z</time>
      </trkpt>
      <trkpt lat="59.9743025" lon="17.7334988">
        <ele>31.8607</ele>
        <time>2014-07-06T09:10:48Z</time>
      </trkpt>
      <trkpt lat="59.9742983" lon="17.7335973">
        <ele>32.3416</ele>
        <time>2014-07-06T09:10:49Z</time>
      </trkpt>
      <trkpt lat="59.9742935" lon="17.7336972">
        <ele>32.3416</ele>
        <time>2014-07-06T09:10:50Z</time>
      </trkpt>
      <trkpt lat="59.9742874" lon="17.7337982">
        <ele>32.3416</ele>
        <time>2014-07-06T09:10:51Z</time>
      </trkpt>
      <trkpt lat="59.9742819" lon="17.7338967">
        <ele>32.3416</ele>
        <time>2014-07-06T09:10:52Z</time>
      </trkpt>
      <trkpt lat="59.9742776" lon="17.7339918">
        <ele>32.3416</ele>
        <time>2014-07-06T09:10:53Z</time>
      </trkpt>
      <trkpt lat="59.9742733" lon="17.7340862">
        <ele>32.3416</ele>
        <time>2014-07-06T09:10:54Z</time>
      </trkpt>
      <trkpt lat="59.9742691" lon="17.7341825">
        <ele>32.3416</ele>
        <time>2014-07-06T09:10:55Z</time>
      </trkpt>
      <trkpt lat="59.9742662" lon="17.7342809">
        <ele>32.3416</ele>
        <time>2014-07-06T09:10:56Z</time>
      </trkpt>
      <trkpt lat="59.9742643" lon="17.7343788">
        <ele>32.3416</ele>
        <time>2014-07-06T09:10:57Z</time>
      </trkpt>
      <trkpt lat="59.9742636" lon="17.7344736">
        <ele>32.3416</ele>
        <time>2014-07-06T09:10:58Z</time>
      </trkpt>
      <trkpt lat="59.9742635" lon="17.7345674">
        <ele>32.8223</ele>
        <time>2014-07-06T09:10:59Z</time>
      </trkpt>
      <trkpt lat="59.9742636" lon="17.7346632">
        <ele>32.8223</ele>
        <time>2014-07-06T09:11:00Z</time>
      </trkpt>
      <trkpt lat="59.9742657" lon="17.7347611">
        <ele>32.8223</ele>
        <time>2014-07-06T09:11:01Z</time>
      </trkpt>
      <trkpt lat="59.9742702" lon="17.734859">
        <ele>32.8223</ele>
        <time>2014-07-06T09:11:02Z</time>
      </trkpt>
      <trkpt lat="59.9742751" lon="17.7349539">
        <ele>32.8223</ele>
        <time>2014-07-06T09:11:03Z</time>
      </trkpt>
      <trkpt lat="59.9742812" lon="17.735046">
        <ele>32.8223</ele>
        <time>2014-07-06T09:11:04Z</time>
      </trkpt>
      <trkpt lat="59.9742886" lon="17.7351381">
        <ele>32.8223</ele>
        <time>2014-07-06T09:11:05Z</time>
      </trkpt>
      <trkpt lat="59.9742953" lon="17.7352314">
        <ele>32.8223</ele>
        <time>2014-07-06T09:11:06Z</time>
      </trkpt>
      <trkpt lat="59.974303" lon="17.7353237">
        <ele>33.3029</ele>
        <time>2014-07-06T09:11:07Z</time>
      </trkpt>
      <trkpt lat="59.9743128" lon="17.7354148">
        <ele>33.3029</ele>
        <time>2014-07-06T09:11:08Z</time>
      </trkpt>
      <trkpt lat="59.9743227" lon="17.7355048">
        <ele>33.3029</ele>
        <time>2014-07-06T09:11:09Z</time>
      </trkpt>
      <trkpt lat="59.9743342" lon="17.7355931">
        <ele>33.3029</ele>
        <time>2014-07-06T09:11:10Z</time>
      </trkpt>
      <trkpt lat="59.974347" lon="17.7356785">
        <ele>33.3029</ele>
        <time>2014-07-06T09:11:11Z</time>
      </trkpt>
      <trkpt lat="59.9743605" lon="17.7357598">
        <ele>33.3029</ele>
        <time>2014-07-06T09:11:12Z</time>
      </trkpt>
      <trkpt lat="59.974374" lon="17.73584">
        <ele>33.3029</ele>
        <time>2014-07-06T09:11:13Z</time>
      </trkpt>
      <trkpt lat="59.9743879" lon="17.7359216">
        <ele>33.7834</ele>
        <time>2014-07-06T09:11:14Z</time>
      </trkpt>
      <trkpt lat="59.9744034" lon="17.7360043">
        <ele>33.7834</ele>
        <time>2014-07-06T09:11:15Z</time>
      </trkpt>
      <trkpt lat="59.9744206" lon="17.7360862">
        <ele>33.7834</ele>
        <time>2014-07-06T09:11:16Z</time>
      </trkpt>
      <trkpt lat="59.9744377" lon="17.7361679">
        <ele>33.7834</ele>
        <time>2014-07-06T09:11:17Z</time>
      </trkpt>
      <trkpt lat="59.9744543" lon="17.7362504">
        <ele>33.7834</ele>
        <time>2014-07-06T09:11:18Z</time>
      </trkpt>
      <trkpt lat="59.9744733" lon="17.7363328">
        <ele>33.7834</ele>
        <time>2014-07-06T09:11:19Z</time>
      </trkpt>
      <trkpt lat="59.974494" lon="17.7364125">
        <ele>33.7834</ele>
        <time>2014-07-06T09:11:20Z</time>
      </trkpt>
      <trkpt lat="59.9745157" lon="17.7364908">
        <ele>33.7834</ele>
        <time>2014-07-06T09:11:21Z</time>
      </trkpt>
      <trkpt lat="59.9745367" lon="17.7365703">
        <ele>34.2642</ele>
        <time>2014-07-06T09:11:22Z</time>
      </trkpt>
      <trkpt lat="59.9745579" lon="17.7366478">
        <ele>34.2642</ele>
        <time>2014-07-06T09:11:23Z</time>
      </trkpt>
      <trkpt lat="59.97458" lon="17.7367228">
        <ele>34.2642</ele>
        <time>2014-07-06T09:11:24Z</time>
      </trkpt>
      <trkpt lat="59.974604" lon="17.7367991">
        <ele>34.2642</ele>
        <time>2014-07-06T09:11:25Z</time>
      </trkpt>
      <trkpt lat="59.9746289" lon="17.7368747">
        <ele>34.2642</ele>
        <time>2014-07-06T09:11:26Z</time>
      </trkpt>
      <trkpt lat="59.9746537" lon="17.7369502">
        <ele>34.2642</ele>
        <time>2014-07-06T09:11:27Z</time>
      </trkpt>
      <trkpt lat="59.9746795" lon="17.7370223">
        <ele>34.2642</ele>
        <time>2014-07-06T09:11:28Z</time>
      </trkpt>
      <trkpt lat="59.9747055" lon="17.7370914">
        <ele>34.2642</ele>
        <time>2014-07-06T09:11:29Z</time>
      </trkpt>
      <trkpt lat="59.9747302" lon="17.7371615">
        <ele>34.2642</ele>
        <time>2014-07-06T09:11:30Z</time>
      </trkpt>
      <trkpt lat="59.9747557" lon="17.7372304">
        <ele>34.2642</ele>
        <time>2014-07-06T09:11:31Z</time>
      </trkpt>
      <trkpt lat="59.9747825" lon="17.7372983">
        <ele>34.2642</ele>
        <time>2014-07-06T09:11:32Z</time>
      </trkpt>
      <trkpt lat="59.9748092" lon="17.7373646">
        <ele>34.2642</ele>
        <time>2014-07-06T09:11:33Z</time>
      </trkpt>
      <trkpt lat="59.9748365" lon="17.7374283">
        <ele>34.2642</ele>
        <time>2014-07-06T09:11:34Z</time>
      </trkpt>
      <trkpt lat="59.9748649" lon="17.7374909">
        <ele>34.2642</ele>
        <time>2014-07-06T09:11:35Z</time>
      </trkpt>
      <trkpt lat="59.9748946" lon="17.7375506">
        <ele>34.2642</ele>
        <time>2014-07-06T09:11:36Z</time>
      </trkpt>
      <trkpt lat="59.974925" lon="17.7376079">
        <ele>34.2642</ele>
        <time>2014-07-06T09:11:37Z</time>
      </trkpt>
      <trkpt lat="59.9749552" lon="17.737665">
        <ele>34.2642</ele>
        <time>2014-07-06T09:11:38Z</time>
      </trkpt>
      <trkpt lat="59.9749842" lon="17.737722">
        <ele>34.2642</ele>
        <time>2014-07-06T09:11:39Z</time>
      </trkpt>
      <trkpt lat="59.9750138" lon="17.7377783">
        <ele>34.2642</ele>
        <time>2014-07-06T09:11:40Z</time>
      </trkpt>
      <trkpt lat="59.9750441" lon="17.737832">
        <ele>33.7834</ele>
        <time>2014-07-06T09:11:41Z</time>
      </trkpt>
      <trkpt lat="59.9750747" lon="17.7378852">
        <ele>33.7834</ele>
        <time>2014-07-06T09:11:42Z</time>
      </trkpt>
      <trkpt lat="59.9751054" lon="17.7379399">
        <ele>33.7834</ele>
        <time>2014-07-06T09:11:43Z</time>
      </trkpt>
      <trkpt lat="59.9751365" lon="17.7379951">
        <ele>33.7834</ele>
        <time>2014-07-06T09:11:44Z</time>
      </trkpt>
      <trkpt lat="59.9751689" lon="17.7380506">
        <ele>33.7834</ele>
        <time>2014-07-06T09:11:45Z</time>
      </trkpt>
      <trkpt lat="59.9752016" lon="17.7381071">
        <ele>33.3029</ele>
        <time>2014-07-06T09:11:46Z</time>
      </trkpt>
      <trkpt lat="59.9752344" lon="17.7381646">
        <ele>33.3029</ele>
        <time>2014-07-06T09:11:47Z</time>
      </trkpt>
      <trkpt lat="59.9752673" lon="17.7382219">
        <ele>33.3029</ele>
        <time>2014-07-06T09:11:48Z</time>
      </trkpt>
      <trkpt lat="59.9752996" lon="17.7382782">
        <ele>33.3029</ele>
        <time>2014-07-06T09:11:49Z</time>
      </trkpt>
      <trkpt lat="59.9753319" lon="17.7383354">
        <ele>33.3029</ele>
        <time>2014-07-06T09:11:50Z</time>
      </trkpt>
      <trkpt lat="59.9753655" lon="17.7383939">
        <ele>33.3029</ele>
        <time>2014-07-06T09:11:51Z</time>
      </trkpt>
      <trkpt lat="59.9753995" lon="17.7384523">
        <ele>33.3029</ele>
        <time>2014-07-06T09:11:52Z</time>
      </trkpt>
      <trkpt lat="59.9754323" lon="17.7385088">
        <ele>33.3029</ele>
        <time>2014-07-06T09:11:53Z</time>
      </trkpt>
      <trkpt lat="59.9754653" lon="17.7385636">
        <ele>33.3029</ele>
        <time>2014-07-06T09:11:54Z</time>
      </trkpt>
      <trkpt lat="59.9754978" lon="17.7386183">
        <ele>33.3029</ele>
        <time>2014-07-06T09:11:55Z</time>
      </trkpt>
      <trkpt lat="59.9755295" lon="17.7386742">
        <ele>33.3029</ele>
        <time>2014-07-06T09:11:56Z</time>
      </trkpt>
      <trkpt lat="59.9755616" lon="17.7387306">
        <ele>33.3029</ele>
        <time>2014-07-06T09:11:57Z</time>
      </trkpt>
      <trkpt lat="59.9755939" lon="17.738788">
        <ele>33.3029</ele>
        <time>2014-07-06T09:11:58Z</time>
      </trkpt>
      <trkpt lat="59.975626" lon="17.738845">
        <ele>33.3029</ele>
        <time>2014-07-06T09:11:59Z</time>
      </trkpt>
      <trkpt lat="59.9756575" lon="17.7388994">
        <ele>33.7834</ele>
        <time>2014-07-06T09:12:00Z</time>
      </trkpt>
      <trkpt lat="59.9756872" lon="17.7389519">
        <ele>33.7834</ele>
        <time>2014-07-06T09:12:01Z</time>
      </trkpt>
      <trkpt lat="59.9757164" lon="17.7390019">
        <ele>33.7834</ele>
        <time>2014-07-06T09:12:02Z</time>
      </trkpt>
      <trkpt lat="59.9757454" lon="17.7390482">
        <ele>33.7834</ele>
        <time>2014-07-06T09:12:03Z</time>
      </trkpt>
      <trkpt lat="59.9757744" lon="17.7390951">
        <ele>34.2642</ele>
        <time>2014-07-06T09:12:04Z</time>
      </trkpt>
      <trkpt lat="59.9758032" lon="17.7391453">
        <ele>34.7449</ele>
        <time>2014-07-06T09:12:05Z</time>
      </trkpt>
      <trkpt lat="59.9758319" lon="17.7391954">
        <ele>34.7449</ele>
        <time>2014-07-06T09:12:06Z</time>
      </trkpt>
      <trkpt lat="59.9758591" lon="17.7392417">
        <ele>35.2255</ele>
        <time>2014-07-06T09:12:07Z</time>
      </trkpt>
      <trkpt lat="59.9758855" lon="17.7392828">
        <ele>35.7061</ele>
        <time>2014-07-06T09:12:08Z</time>
      </trkpt>
      <trkpt lat="59.9759108" lon="17.7393208">
        <ele>36.1868</ele>
        <time>2014-07-06T09:12:09Z</time>
      </trkpt>
      <trkpt lat="59.9759347" lon="17.7393605">
        <ele>36.1868</ele>
        <time>2014-07-06T09:12:10Z</time>
      </trkpt>
      <trkpt lat="59.9759574" lon="17.7394">
        <ele>36.6675</ele>
        <time>2014-07-06T09:12:11Z</time>
      </trkpt>
      <trkpt lat="59.9759799" lon="17.7394387">
        <ele>37.1481</ele>
        <time>2014-07-06T09:12:12Z</time>
      </trkpt>
      <trkpt lat="59.9760026" lon="17.7394776">
        <ele>37.1481</ele>
        <time>2014-07-06T09:12:13Z</time>
      </trkpt>
      <trkpt lat="59.9760243" lon="17.7395158">
        <ele>37.6287</ele>
        <time>2014-07-06T09:12:14Z</time>
      </trkpt>
      <trkpt lat="59.9760444" lon="17.739548">
        <ele>38.1094</ele>
        <time>2014-07-06T09:12:15Z</time>
      </trkpt>
      <trkpt lat="59.9760637" lon="17.739578">
        <ele>38.1094</ele>
        <time>2014-07-06T09:12:16Z</time>
      </trkpt>
      <trkpt lat="59.976083" lon="17.7396066">
        <ele>38.5901</ele>
        <time>2014-07-06T09:12:17Z</time>
      </trkpt>
      <trkpt lat="59.9761049" lon="17.7396294">
        <ele>38.5901</ele>
        <time>2014-07-06T09:12:18Z</time>
      </trkpt>
      <trkpt lat="59.9761274" lon="17.7396514">
        <ele>39.0707</ele>
        <time>2014-07-06T09:12:19Z</time>
      </trkpt>
      <trkpt lat="59.976148" lon="17.7396774">
        <ele>39.0707</ele>
        <time>2014-07-06T09:12:20Z</time>
      </trkpt>
      <trkpt lat="59.9761659" lon="17.7397081">
        <ele>39.5513</ele>
        <time>2014-07-06T09:12:21Z</time>
      </trkpt>
      <trkpt lat="59.9761818" lon="17.7397398">
        <ele>39.5513</ele>
        <time>2014-07-06T09:12:22Z</time>
      </trkpt>
      <trkpt lat="59.976198" lon="17.7397695">
        <ele>40.0321</ele>
        <time>2014-07-06T09:12:23Z</time>
      </trkpt>
      <trkpt lat="59.9762158" lon="17.7397983">
        <ele>40.0321</ele>
        <time>2014-07-06T09:12:24Z</time>
      </trkpt>
      <trkpt lat="59.9762337" lon="17.7398277">
        <ele>40.5128</ele>
        <time>2014-07-06T09:12:25Z</time>
      </trkpt>
      <trkpt lat="59.9762492" lon="17.739859">
        <ele>40.5128</ele>
        <time>2014-07-06T09:12:26Z</time>
      </trkpt>
      <trkpt lat="59.9762624" lon="17.7398909">
        <ele>40.5128</ele>
        <time>2014-07-06T09:12:27Z</time>
      </trkpt>
      <trkpt lat="59.9762761" lon="17.7399174">
        <ele>40.5128</ele>
        <time>2014-07-06T09:12:28Z</time>
      </trkpt>
      <trkpt lat="59.9762916" lon="17.7399376">
        <ele>40.5128</ele>
        <time>2014-07-06T09:12:29Z</time>
      </trkpt>
      <trkpt lat="59.9763098" lon="17.7399478">
        <ele>40.5128</ele>
        <time>2014-07-06T09:12:30Z</time>
      </trkpt>
      <trkpt lat="59.9763316" lon="17.7399408">
        <ele>40.5128</ele>
        <time>2014-07-06T09:12:31Z</time>
      </trkpt>
      <trkpt lat="59.9763569" lon="17.7399117">
        <ele>40.5128</ele>
        <time>2014-07-06T09:12:32Z</time>
      </trkpt>
      <trkpt lat="59.9763852" lon="17.7398614">
        <ele>40.0321</ele>
        <time>2014-07-06T09:12:33Z</time>
      </trkpt>
      <trkpt lat="59.9764165" lon="17.7397983">
        <ele>40.0321</ele>
        <time>2014-07-06T09:12:34Z</time>
      </trkpt>
      <trkpt lat="59.9764533" lon="17.7397326">
        <ele>39.5513</ele>
        <time>2014-07-06T09:12:35Z</time>
      </trkpt>
      <trkpt lat="59.9764974" lon="17.7396677">
        <ele>39.5513</ele>
        <time>2014-07-06T09:12:36Z</time>
      </trkpt>
      <trkpt lat="59.9765482" lon="17.7396053">
        <ele>39.5513</ele>
        <time>2014-07-06T09:12:37Z</time>
      </trkpt>
      <trkpt lat="59.9766049" lon="17.7395513">
        <ele>39.5513</ele>
        <time>2014-07-06T09:12:38Z</time>
      </trkpt>
      <trkpt lat="59.9766651" lon="17.7395061">
        <ele>39.5513</ele>
        <time>2014-07-06T09:12:39Z</time>
      </trkpt>
      <trkpt lat="59.9767268" lon="17.7394688">
        <ele>39.5513</ele>
        <time>2014-07-06T09:12:40Z</time>
      </trkpt>
      <trkpt lat="59.9767888" lon="17.7394401">
        <ele>39.5513</ele>
        <time>2014-07-06T09:12:41Z</time>
      </trkpt>
      <trkpt lat="59.9768506" lon="17.7394134">
        <ele>40.0321</ele>
        <time>2014-07-06T09:12:42Z</time>
      </trkpt>
      <trkpt lat="59.9769121" lon="17.7393888">
        <ele>40.5128</ele>
        <time>2014-07-06T09:12:43Z</time>
      </trkpt>
      <trkpt lat="59.9769743" lon="17.7393647">
        <ele>40.5128</ele>
        <time>2014-07-06T09:12:44Z</time>
      </trkpt>
      <trkpt lat="59.9770365" lon="17.7393372">
        <ele>40.5128</ele>
        <time>2014-07-06T09:12:45Z</time>
      </trkpt>
      <trkpt lat="59.9770986" lon="17.7393039">
        <ele>40.5128</ele>
        <time>2014-07-06T09:12:46Z</time>
      </trkpt>
      <trkpt lat="59.9771591" lon="17.7392671">
        <ele>40.5128</ele>
        <time>2014-07-06T09:12:47Z</time>
      </trkpt>
      <trkpt lat="59.9772161" lon="17.7392308">
        <ele>40.5128</ele>
        <time>2014-07-06T09:12:48Z</time>
      </trkpt>
      <trkpt lat="59.9772696" lon="17.7391958">
        <ele>40.5128</ele>
        <time>2014-07-06T09:12:49Z</time>
      </trkpt>
      <trkpt lat="59.9773182" lon="17.7391627">
        <ele>40.9934</ele>
        <time>2014-07-06T09:12:50Z</time>
      </trkpt>
      <trkpt lat="59.9773645" lon="17.7391382">
        <ele>41.474</ele>
        <time>2014-07-06T09:12:51Z</time>
      </trkpt>
      <trkpt lat="59.9774095" lon="17.7391186">
        <ele>41.474</ele>
        <time>2014-07-06T09:12:52Z</time>
      </trkpt>
      <trkpt lat="59.977452" lon="17.7390992">
        <ele>41.9547</ele>
        <time>2014-07-06T09:12:53Z</time>
      </trkpt>
      <trkpt lat="59.9774922" lon="17.7390817">
        <ele>41.9547</ele>
        <time>2014-07-06T09:12:54Z</time>
      </trkpt>
      <trkpt lat="59.9775305" lon="17.7390694">
        <ele>42.4354</ele>
        <time>2014-07-06T09:12:55Z</time>
      </trkpt>
      <trkpt lat="59.9775668" lon="17.7390621">
        <ele>42.4354</ele>
        <time>2014-07-06T09:12:56Z</time>
      </trkpt>
      <trkpt lat="59.9776018" lon="17.7390563">
        <ele>42.916</ele>
        <time>2014-07-06T09:12:57Z</time>
      </trkpt>
      <trkpt lat="59.9776367" lon="17.7390531">
        <ele>42.916</ele>
        <time>2014-07-06T09:12:58Z</time>
      </trkpt>
      <trkpt lat="59.9776711" lon="17.7390518">
        <ele>43.3966</ele>
        <time>2014-07-06T09:12:59Z</time>
      </trkpt>
      <trkpt lat="59.9777048" lon="17.7390528">
        <ele>43.3966</ele>
        <time>2014-07-06T09:13:00Z</time>
      </trkpt>
      <trkpt lat="59.9777379" lon="17.7390617">
        <ele>43.3966</ele>
        <time>2014-07-06T09:13:01Z</time>
      </trkpt>
      <trkpt lat="59.9777716" lon="17.7390773">
        <ele>43.3966</ele>
        <time>2014-07-06T09:13:02Z</time>
      </trkpt>
      <trkpt lat="59.9778056" lon="17.7390947">
        <ele>43.3966</ele>
        <time>2014-07-06T09:13:03Z</time>
      </trkpt>
      <trkpt lat="59.9778399" lon="17.7391089">
        <ele>43.3966</ele>
        <time>2014-07-06T09:13:04Z</time>
      </trkpt>
      <trkpt lat="59.9778758" lon="17.7391227">
        <ele>43.8773</ele>
        <time>2014-07-06T09:13:05Z</time>
      </trkpt>
      <trkpt lat="59.9779115" lon="17.7391399">
        <ele>43.8773</ele>
        <time>2014-07-06T09:13:06Z</time>
      </trkpt>
      <trkpt lat="59.9779486" lon="17.7391609">
        <ele>43.8773</ele>
        <time>2014-07-06T09:13:07Z</time>
      </trkpt>
      <trkpt lat="59.9779853" lon="17.7391812">
        <ele>43.8773</ele>
        <time>2014-07-06T09:13:08Z</time>
      </trkpt>
      <trkpt lat="59.9780228" lon="17.7392006">
        <ele>44.358</ele>
        <time>2014-07-06T09:13:09Z</time>
      </trkpt>
      <trkpt lat="59.9780609" lon="17.7392181">
        <ele>44.358</ele>
        <time>2014-07-06T09:13:10Z</time>
      </trkpt>
      <trkpt lat="59.9780993" lon="17.7392315">
        <ele>44.358</ele>
        <time>2014-07-06T09:13:11Z</time>
      </trkpt>
      <trkpt lat="59.9781377" lon="17.7392428">
        <ele>44.358</ele>
        <time>2014-07-06T09:13:12Z</time>
      </trkpt>
      <trkpt lat="59.978176" lon="17.7392529">
        <ele>44.358</ele>
        <time>2014-07-06T09:13:13Z</time>
      </trkpt>
      <trkpt lat="59.978215" lon="17.7392626">
        <ele>44.358</ele>
        <time>2014-07-06T09:13:14Z</time>
      </trkpt>
      <trkpt lat="59.9782555" lon="17.7392725">
        <ele>44.358</ele>
        <time>2014-07-06T09:13:15Z</time>
      </trkpt>
      <trkpt lat="59.9782979" lon="17.7392828">
        <ele>44.358</ele>
        <time>2014-07-06T09:13:16Z</time>
      </trkpt>
      <trkpt lat="59.9783427" lon="17.7392896">
        <ele>44.358</ele>
        <time>2014-07-06T09:13:17Z</time>
      </trkpt>
      <trkpt lat="59.9783873" lon="17.7392901">
        <ele>43.8773</ele>
        <time>2014-07-06T09:13:18Z</time>
      </trkpt>
      <trkpt lat="59.978433" lon="17.7392916">
        <ele>43.3966</ele>
        <time>2014-07-06T09:13:19Z</time>
      </trkpt>
      <trkpt lat="59.9784797" lon="17.7392985">
        <ele>43.3966</ele>
        <time>2014-07-06T09:13:20Z</time>
      </trkpt>
      <trkpt lat="59.9785262" lon="17.7393067">
        <ele>42.916</ele>
        <time>2014-07-06T09:13:21Z</time>
      </trkpt>
      <trkpt lat="59.9785719" lon="17.7393072">
        <ele>42.4354</ele>
        <time>2014-07-06T09:13:22Z</time>
      </trkpt>
      <trkpt lat="59.978621" lon="17.7393068">
        <ele>42.4354</ele>
        <time>2014-07-06T09:13:23Z</time>
      </trkpt>
      <trkpt lat="59.9786691" lon="17.7393127">
        <ele>41.9547</ele>
        <time>2014-07-06T09:13:24Z</time>
      </trkpt>
      <trkpt lat="59.9787164" lon="17.7393222">
        <ele>41.9547</ele>
        <time>2014-07-06T09:13:25Z</time>
      </trkpt>
      <trkpt lat="59.9787584" lon="17.7393256">
        <ele>41.474</ele>
        <time>2014-07-06T09:13:26Z</time>
      </trkpt>
      <trkpt lat="59.9787945" lon="17.7393233">
        <ele>41.474</ele>
        <time>2014-07-06T09:13:27Z</time>
      </trkpt>
      <trkpt lat="59.9788263" lon="17.7393294">
        <ele>41.474</ele>
        <time>2014-07-06T09:13:28Z</time>
      </trkpt>
      <trkpt lat="59.9788537" lon="17.739348">
        <ele>40.9934</ele>
        <time>2014-07-06T09:13:29Z</time>
      </trkpt>
      <trkpt lat="59.9788765" lon="17.7393688">
        <ele>40.9934</ele>
        <time>2014-07-06T09:13:30Z</time>
      </trkpt>
      <trkpt lat="59.9788981" lon="17.7393935">
        <ele>40.9934</ele>
        <time>2014-07-06T09:13:31Z</time>
      </trkpt>
      <trkpt lat="59.9789154" lon="17.7394235">
        <ele>40.5128</ele>
        <time>2014-07-06T09:13:32Z</time>
      </trkpt>
      <trkpt lat="59.9789279" lon="17.7394542">
        <ele>40.5128</ele>
        <time>2014-07-06T09:13:33Z</time>
      </trkpt>
      <trkpt lat="59.9789398" lon="17.7394849">
        <ele>40.5128</ele>
        <time>2014-07-06T09:13:34Z</time>
      </trkpt>
      <trkpt lat="59.9789535" lon="17.7395144">
        <ele>40.5128</ele>
        <time>2014-07-06T09:13:35Z</time>
      </trkpt>
      <trkpt lat="59.9789666" lon="17.7395428">
        <ele>40.5128</ele>
        <time>2014-07-06T09:13:36Z</time>
      </trkpt>
      <trkpt lat="59.9789783" lon="17.7395756">
        <ele>40.5128</ele>
        <time>2014-07-06T09:13:37Z</time>
      </trkpt>
      <trkpt lat="59.9789861" lon="17.7396132">
        <ele>40.9934</ele>
        <time>2014-07-06T09:13:38Z</time>
      </trkpt>
      <trkpt lat="59.9789894" lon="17.7396535">
        <ele>40.9934</ele>
        <time>2014-07-06T09:13:39Z</time>
      </trkpt>
      <trkpt lat="59.9789899" lon="17.739691">
        <ele>40.9934</ele>
        <time>2014-07-06T09:13:40Z</time>
      </trkpt>
      <trkpt lat="59.9789905" lon="17.7397138">
        <ele>41.474</ele>
        <time>2014-07-06T09:13:41Z</time>
      </trkpt>
      <trkpt lat="59.9789916" lon="17.7397217">
        <ele>41.474</ele>
        <time>2014-07-06T09:13:42Z</time>
      </trkpt>
      <trkpt lat="59.9789905" lon="17.7397199">
        <ele>41.474</ele>
        <time>2014-07-06T09:13:43Z</time>
      </trkpt>
    </trkseg>
  </trk>
</gpx>